<?xml version="1.0" encoding="UTF-8" standalone="no" ?>
<gpx xmlns="http://www.topografix.com/GPX/1/1" xmlns:xsi="http://www.w3.org/2001/XMLSchema-instance" xsi:schemaLocation="http://www.topografix.com/GPX/1/1 http://www.topografix.com/GPX/1/1/gpx.xsd" version="1.1" creator="VisuGPX - https://www.visugpx.com">
  <metadata>
    <name>Les îles éoliennes 02</name>
    <desc><![CDATA[le retour des îles les volcans les dauphins
la balade à Palerme]]></desc>
  </metadata>
  <trk>
    <name><![CDATA[Tracé actuel: 19 AVR 2018 14:16]]></name>
    <trkseg>
      <trkpt lat="38.47772" lon="14.96366">
        <ele>40.51</ele>
        <time>2018-04-19T12:16:07Z</time>
      </trkpt>
      <trkpt lat="38.47772" lon="14.96366">
        <ele>37.15</ele>
        <time>2018-04-19T12:16:28Z</time>
      </trkpt>
      <trkpt lat="38.47783" lon="14.96353">
        <ele>8.31</ele>
        <time>2018-04-19T12:16:57Z</time>
      </trkpt>
      <trkpt lat="38.47775" lon="14.96361">
        <ele>8.31</ele>
        <time>2018-04-19T12:17:21Z</time>
      </trkpt>
      <trkpt lat="38.47769" lon="14.96365">
        <ele>8.31</ele>
        <time>2018-04-19T12:17:30Z</time>
      </trkpt>
      <trkpt lat="38.4775" lon="14.96361">
        <ele>7.35</ele>
        <time>2018-04-19T12:17:50Z</time>
      </trkpt>
      <trkpt lat="38.47735" lon="14.96318">
        <ele>5.91</ele>
        <time>2018-04-19T12:18:22Z</time>
      </trkpt>
      <trkpt lat="38.47731" lon="14.96308">
        <ele>6.39</ele>
        <time>2018-04-19T12:18:29Z</time>
      </trkpt>
      <trkpt lat="38.4772" lon="14.96286">
        <ele>6.39</ele>
        <time>2018-04-19T12:18:43Z</time>
      </trkpt>
      <trkpt lat="38.4771" lon="14.96263">
        <ele>6.39</ele>
        <time>2018-04-19T12:18:55Z</time>
      </trkpt>
      <trkpt lat="38.47688" lon="14.96237">
        <ele>5.91</ele>
        <time>2018-04-19T12:19:11Z</time>
      </trkpt>
      <trkpt lat="38.47657" lon="14.96223">
        <ele>5.42</ele>
        <time>2018-04-19T12:19:25Z</time>
      </trkpt>
      <trkpt lat="38.47629" lon="14.96216">
        <ele>5.91</ele>
        <time>2018-04-19T12:19:36Z</time>
      </trkpt>
      <trkpt lat="38.47607" lon="14.96208">
        <ele>3.98</ele>
        <time>2018-04-19T12:19:45Z</time>
      </trkpt>
      <trkpt lat="38.47596" lon="14.96204">
        <ele>3.5</ele>
        <time>2018-04-19T12:19:50Z</time>
      </trkpt>
      <trkpt lat="38.47563" lon="14.96197">
        <ele>3.5</ele>
        <time>2018-04-19T12:20:02Z</time>
      </trkpt>
      <trkpt lat="38.47527" lon="14.96186">
        <ele>3.02</ele>
        <time>2018-04-19T12:20:15Z</time>
      </trkpt>
      <trkpt lat="38.47477" lon="14.96178">
        <ele>1.58</ele>
        <time>2018-04-19T12:20:33Z</time>
      </trkpt>
      <trkpt lat="38.47453" lon="14.96174">
        <ele>1.58</ele>
        <time>2018-04-19T12:20:42Z</time>
      </trkpt>
      <trkpt lat="38.47425" lon="14.9617">
        <ele>3.02</ele>
        <time>2018-04-19T12:20:52Z</time>
      </trkpt>
      <trkpt lat="38.47386" lon="14.96162">
        <ele>3.98</ele>
        <time>2018-04-19T12:21:06Z</time>
      </trkpt>
      <trkpt lat="38.47333" lon="14.96149">
        <ele>4.46</ele>
        <time>2018-04-19T12:21:25Z</time>
      </trkpt>
      <trkpt lat="38.47283" lon="14.96134">
        <ele>3.98</ele>
        <time>2018-04-19T12:21:44Z</time>
      </trkpt>
      <trkpt lat="38.47256" lon="14.96124">
        <ele>3.5</ele>
        <time>2018-04-19T12:21:54Z</time>
      </trkpt>
      <trkpt lat="38.47213" lon="14.96109">
        <ele>3.5</ele>
        <time>2018-04-19T12:22:10Z</time>
      </trkpt>
      <trkpt lat="38.47179" lon="14.96101">
        <ele>1.1</ele>
        <time>2018-04-19T12:22:22Z</time>
      </trkpt>
      <trkpt lat="38.47128" lon="14.96092">
        <ele>3.5</ele>
        <time>2018-04-19T12:22:41Z</time>
      </trkpt>
      <trkpt lat="38.47104" lon="14.96086">
        <ele>3.02</ele>
        <time>2018-04-19T12:22:50Z</time>
      </trkpt>
      <trkpt lat="38.47067" lon="14.96079">
        <ele>3.5</ele>
        <time>2018-04-19T12:23:03Z</time>
      </trkpt>
      <trkpt lat="38.47016" lon="14.96067">
        <ele>3.98</ele>
        <time>2018-04-19T12:23:21Z</time>
      </trkpt>
      <trkpt lat="38.46982" lon="14.96061">
        <ele>4.46</ele>
        <time>2018-04-19T12:23:34Z</time>
      </trkpt>
      <trkpt lat="38.46899" lon="14.96054">
        <ele>5.91</ele>
        <time>2018-04-19T12:24:04Z</time>
      </trkpt>
      <trkpt lat="38.46819" lon="14.96054">
        <ele>5.91</ele>
        <time>2018-04-19T12:24:32Z</time>
      </trkpt>
      <trkpt lat="38.46744" lon="14.96057">
        <ele>5.91</ele>
        <time>2018-04-19T12:24:59Z</time>
      </trkpt>
      <trkpt lat="38.46665" lon="14.96061">
        <ele>4.46</ele>
        <time>2018-04-19T12:25:27Z</time>
      </trkpt>
      <trkpt lat="38.46589" lon="14.96074">
        <ele>5.42</ele>
        <time>2018-04-19T12:25:54Z</time>
      </trkpt>
      <trkpt lat="38.46524" lon="14.96089">
        <ele>5.91</ele>
        <time>2018-04-19T12:26:17Z</time>
      </trkpt>
      <trkpt lat="38.46463" lon="14.96094">
        <ele>4.46</ele>
        <time>2018-04-19T12:26:39Z</time>
      </trkpt>
      <trkpt lat="38.46416" lon="14.96106">
        <ele>6.39</ele>
        <time>2018-04-19T12:26:56Z</time>
      </trkpt>
      <trkpt lat="38.46373" lon="14.96121">
        <ele>8.31</ele>
        <time>2018-04-19T12:27:12Z</time>
      </trkpt>
      <trkpt lat="38.46335" lon="14.96137">
        <ele>8.31</ele>
        <time>2018-04-19T12:27:27Z</time>
      </trkpt>
      <trkpt lat="38.4631" lon="14.96148">
        <ele>7.35</ele>
        <time>2018-04-19T12:27:38Z</time>
      </trkpt>
      <trkpt lat="38.46283" lon="14.96159">
        <ele>6.39</ele>
        <time>2018-04-19T12:27:48Z</time>
      </trkpt>
      <trkpt lat="38.46254" lon="14.96177">
        <ele>5.91</ele>
        <time>2018-04-19T12:28:00Z</time>
      </trkpt>
      <trkpt lat="38.46212" lon="14.96192">
        <ele>6.87</ele>
        <time>2018-04-19T12:28:16Z</time>
      </trkpt>
      <trkpt lat="38.46168" lon="14.96208">
        <ele>6.87</ele>
        <time>2018-04-19T12:28:32Z</time>
      </trkpt>
      <trkpt lat="38.46129" lon="14.96224">
        <ele>8.31</ele>
        <time>2018-04-19T12:28:47Z</time>
      </trkpt>
      <trkpt lat="38.46076" lon="14.9624">
        <ele>8.31</ele>
        <time>2018-04-19T12:29:07Z</time>
      </trkpt>
      <trkpt lat="38.46046" lon="14.96253">
        <ele>6.87</ele>
        <time>2018-04-19T12:29:18Z</time>
      </trkpt>
      <trkpt lat="38.46013" lon="14.96268">
        <ele>5.91</ele>
        <time>2018-04-19T12:29:31Z</time>
      </trkpt>
      <trkpt lat="38.45981" lon="14.96277">
        <ele>3.98</ele>
        <time>2018-04-19T12:29:43Z</time>
      </trkpt>
      <trkpt lat="38.45945" lon="14.96283">
        <ele>4.46</ele>
        <time>2018-04-19T12:29:56Z</time>
      </trkpt>
      <trkpt lat="38.45896" lon="14.96289">
        <ele>6.87</ele>
        <time>2018-04-19T12:30:13Z</time>
      </trkpt>
      <trkpt lat="38.45866" lon="14.96293">
        <ele>6.39</ele>
        <time>2018-04-19T12:30:24Z</time>
      </trkpt>
      <trkpt lat="38.45834" lon="14.96299">
        <ele>6.87</ele>
        <time>2018-04-19T12:30:36Z</time>
      </trkpt>
      <trkpt lat="38.45771" lon="14.96315">
        <ele>7.35</ele>
        <time>2018-04-19T12:30:59Z</time>
      </trkpt>
      <trkpt lat="38.4573" lon="14.96327">
        <ele>6.87</ele>
        <time>2018-04-19T12:31:14Z</time>
      </trkpt>
      <trkpt lat="38.45681" lon="14.96343">
        <ele>7.83</ele>
        <time>2018-04-19T12:31:32Z</time>
      </trkpt>
      <trkpt lat="38.45654" lon="14.96357">
        <ele>8.31</ele>
        <time>2018-04-19T12:31:43Z</time>
      </trkpt>
      <trkpt lat="38.45627" lon="14.96373">
        <ele>7.83</ele>
        <time>2018-04-19T12:31:54Z</time>
      </trkpt>
      <trkpt lat="38.45592" lon="14.96398">
        <ele>7.35</ele>
        <time>2018-04-19T12:32:09Z</time>
      </trkpt>
      <trkpt lat="38.45548" lon="14.9642">
        <ele>7.35</ele>
        <time>2018-04-19T12:32:26Z</time>
      </trkpt>
      <trkpt lat="38.45495" lon="14.96438">
        <ele>6.87</ele>
        <time>2018-04-19T12:32:46Z</time>
      </trkpt>
      <trkpt lat="38.45445" lon="14.96454">
        <ele>7.35</ele>
        <time>2018-04-19T12:33:04Z</time>
      </trkpt>
      <trkpt lat="38.45381" lon="14.96472">
        <ele>6.39</ele>
        <time>2018-04-19T12:33:27Z</time>
      </trkpt>
      <trkpt lat="38.45337" lon="14.96474">
        <ele>6.39</ele>
        <time>2018-04-19T12:33:42Z</time>
      </trkpt>
      <trkpt lat="38.45277" lon="14.96474">
        <ele>5.91</ele>
        <time>2018-04-19T12:34:02Z</time>
      </trkpt>
      <trkpt lat="38.45224" lon="14.96471">
        <ele>6.87</ele>
        <time>2018-04-19T12:34:20Z</time>
      </trkpt>
      <trkpt lat="38.45171" lon="14.96474">
        <ele>7.35</ele>
        <time>2018-04-19T12:34:38Z</time>
      </trkpt>
      <trkpt lat="38.4511" lon="14.96471">
        <ele>7.35</ele>
        <time>2018-04-19T12:34:59Z</time>
      </trkpt>
      <trkpt lat="38.45061" lon="14.9646">
        <ele>7.83</ele>
        <time>2018-04-19T12:35:16Z</time>
      </trkpt>
      <trkpt lat="38.45003" lon="14.96445">
        <ele>7.35</ele>
        <time>2018-04-19T12:35:36Z</time>
      </trkpt>
      <trkpt lat="38.44952" lon="14.96433">
        <ele>6.39</ele>
        <time>2018-04-19T12:35:54Z</time>
      </trkpt>
      <trkpt lat="38.44897" lon="14.96419">
        <ele>5.91</ele>
        <time>2018-04-19T12:36:13Z</time>
      </trkpt>
      <trkpt lat="38.44853" lon="14.96408">
        <ele>5.91</ele>
        <time>2018-04-19T12:36:28Z</time>
      </trkpt>
      <trkpt lat="38.44788" lon="14.96396">
        <ele>5.42</ele>
        <time>2018-04-19T12:36:50Z</time>
      </trkpt>
      <trkpt lat="38.44757" lon="14.96392">
        <ele>5.42</ele>
        <time>2018-04-19T12:37:01Z</time>
      </trkpt>
      <trkpt lat="38.44689" lon="14.96374">
        <ele>4.94</ele>
        <time>2018-04-19T12:37:24Z</time>
      </trkpt>
      <trkpt lat="38.44644" lon="14.96357">
        <ele>4.46</ele>
        <time>2018-04-19T12:37:40Z</time>
      </trkpt>
      <trkpt lat="38.44594" lon="14.96332">
        <ele>5.42</ele>
        <time>2018-04-19T12:37:58Z</time>
      </trkpt>
      <trkpt lat="38.44538" lon="14.96306">
        <ele>6.39</ele>
        <time>2018-04-19T12:38:18Z</time>
      </trkpt>
      <trkpt lat="38.44483" lon="14.96281">
        <ele>5.91</ele>
        <time>2018-04-19T12:38:38Z</time>
      </trkpt>
      <trkpt lat="38.44431" lon="14.96254">
        <ele>5.91</ele>
        <time>2018-04-19T12:38:57Z</time>
      </trkpt>
      <trkpt lat="38.44379" lon="14.96218">
        <ele>6.39</ele>
        <time>2018-04-19T12:39:17Z</time>
      </trkpt>
      <trkpt lat="38.44337" lon="14.9619">
        <ele>5.42</ele>
        <time>2018-04-19T12:39:33Z</time>
      </trkpt>
      <trkpt lat="38.44284" lon="14.96147">
        <ele>4.94</ele>
        <time>2018-04-19T12:39:54Z</time>
      </trkpt>
      <trkpt lat="38.44235" lon="14.961">
        <ele>4.46</ele>
        <time>2018-04-19T12:40:15Z</time>
      </trkpt>
      <trkpt lat="38.44189" lon="14.96049">
        <ele>3.5</ele>
        <time>2018-04-19T12:40:36Z</time>
      </trkpt>
      <trkpt lat="38.44142" lon="14.95999">
        <ele>3.5</ele>
        <time>2018-04-19T12:40:57Z</time>
      </trkpt>
      <trkpt lat="38.44111" lon="14.95973">
        <ele>4.94</ele>
        <time>2018-04-19T12:41:10Z</time>
      </trkpt>
      <trkpt lat="38.44057" lon="14.95923">
        <ele>3.5</ele>
        <time>2018-04-19T12:41:33Z</time>
      </trkpt>
      <trkpt lat="38.44007" lon="14.95872">
        <ele>3.98</ele>
        <time>2018-04-19T12:41:55Z</time>
      </trkpt>
      <trkpt lat="38.4396" lon="14.95812">
        <ele>3.98</ele>
        <time>2018-04-19T12:42:18Z</time>
      </trkpt>
      <trkpt lat="38.43925" lon="14.95768">
        <ele>3.02</ele>
        <time>2018-04-19T12:42:35Z</time>
      </trkpt>
      <trkpt lat="38.4389" lon="14.95722">
        <ele>5.42</ele>
        <time>2018-04-19T12:42:53Z</time>
      </trkpt>
      <trkpt lat="38.43858" lon="14.95672">
        <ele>7.35</ele>
        <time>2018-04-19T12:43:11Z</time>
      </trkpt>
      <trkpt lat="38.43819" lon="14.9562">
        <ele>7.35</ele>
        <time>2018-04-19T12:43:32Z</time>
      </trkpt>
      <trkpt lat="38.43791" lon="14.95582">
        <ele>6.39</ele>
        <time>2018-04-19T12:43:47Z</time>
      </trkpt>
      <trkpt lat="38.43762" lon="14.95539">
        <ele>5.42</ele>
        <time>2018-04-19T12:44:04Z</time>
      </trkpt>
      <trkpt lat="38.43736" lon="14.95503">
        <ele>5.42</ele>
        <time>2018-04-19T12:44:19Z</time>
      </trkpt>
      <trkpt lat="38.43698" lon="14.95458">
        <ele>4.94</ele>
        <time>2018-04-19T12:44:39Z</time>
      </trkpt>
      <trkpt lat="38.43663" lon="14.95429">
        <ele>6.87</ele>
        <time>2018-04-19T12:44:55Z</time>
      </trkpt>
      <trkpt lat="38.43629" lon="14.95402">
        <ele>8.79</ele>
        <time>2018-04-19T12:45:10Z</time>
      </trkpt>
      <trkpt lat="38.43584" lon="14.95366">
        <ele>11.19</ele>
        <time>2018-04-19T12:45:30Z</time>
      </trkpt>
      <trkpt lat="38.4355" lon="14.95329">
        <ele>8.79</ele>
        <time>2018-04-19T12:45:47Z</time>
      </trkpt>
      <trkpt lat="38.43513" lon="14.95288">
        <ele>7.35</ele>
        <time>2018-04-19T12:46:05Z</time>
      </trkpt>
      <trkpt lat="38.43469" lon="14.95256">
        <ele>10.23</ele>
        <time>2018-04-19T12:46:24Z</time>
      </trkpt>
      <trkpt lat="38.43419" lon="14.95225">
        <ele>6.87</ele>
        <time>2018-04-19T12:46:45Z</time>
      </trkpt>
      <trkpt lat="38.43388" lon="14.952">
        <ele>4.94</ele>
        <time>2018-04-19T12:46:58Z</time>
      </trkpt>
      <trkpt lat="38.43359" lon="14.95177">
        <ele>3.5</ele>
        <time>2018-04-19T12:47:09Z</time>
      </trkpt>
      <trkpt lat="38.43324" lon="14.9515">
        <ele>3.02</ele>
        <time>2018-04-19T12:47:24Z</time>
      </trkpt>
      <trkpt lat="38.43295" lon="14.95128">
        <ele>2.54</ele>
        <time>2018-04-19T12:47:36Z</time>
      </trkpt>
      <trkpt lat="38.43262" lon="14.95103">
        <ele>3.02</ele>
        <time>2018-04-19T12:47:50Z</time>
      </trkpt>
      <trkpt lat="38.43235" lon="14.95085">
        <ele>2.06</ele>
        <time>2018-04-19T12:48:02Z</time>
      </trkpt>
      <trkpt lat="38.43213" lon="14.9507">
        <ele>3.02</ele>
        <time>2018-04-19T12:48:11Z</time>
      </trkpt>
      <trkpt lat="38.43189" lon="14.95054">
        <ele>3.02</ele>
        <time>2018-04-19T12:48:21Z</time>
      </trkpt>
      <trkpt lat="38.43159" lon="14.95032">
        <ele>-0.82</ele>
        <time>2018-04-19T12:48:32Z</time>
      </trkpt>
      <trkpt lat="38.43115" lon="14.95006">
        <ele>1.1</ele>
        <time>2018-04-19T12:48:49Z</time>
      </trkpt>
      <trkpt lat="38.4308" lon="14.94983">
        <ele>2.06</ele>
        <time>2018-04-19T12:49:03Z</time>
      </trkpt>
      <trkpt lat="38.43032" lon="14.9495">
        <ele>3.02</ele>
        <time>2018-04-19T12:49:23Z</time>
      </trkpt>
      <trkpt lat="38.42992" lon="14.94923">
        <ele>3.02</ele>
        <time>2018-04-19T12:49:39Z</time>
      </trkpt>
      <trkpt lat="38.4294" lon="14.9489">
        <ele>2.54</ele>
        <time>2018-04-19T12:49:59Z</time>
      </trkpt>
      <trkpt lat="38.42902" lon="14.94864">
        <ele>3.02</ele>
        <time>2018-04-19T12:50:14Z</time>
      </trkpt>
      <trkpt lat="38.42865" lon="14.94837">
        <ele>2.54</ele>
        <time>2018-04-19T12:50:30Z</time>
      </trkpt>
      <trkpt lat="38.42843" lon="14.94818">
        <ele>1.58</ele>
        <time>2018-04-19T12:50:40Z</time>
      </trkpt>
      <trkpt lat="38.42796" lon="14.9478">
        <ele>3.02</ele>
        <time>2018-04-19T12:50:59Z</time>
      </trkpt>
      <trkpt lat="38.42759" lon="14.94752">
        <ele>3.98</ele>
        <time>2018-04-19T12:51:14Z</time>
      </trkpt>
      <trkpt lat="38.42713" lon="14.94715">
        <ele>3.98</ele>
        <time>2018-04-19T12:51:33Z</time>
      </trkpt>
      <trkpt lat="38.42669" lon="14.9468">
        <ele>3.98</ele>
        <time>2018-04-19T12:51:51Z</time>
      </trkpt>
      <trkpt lat="38.42624" lon="14.94649">
        <ele>4.46</ele>
        <time>2018-04-19T12:52:09Z</time>
      </trkpt>
      <trkpt lat="38.42576" lon="14.94616">
        <ele>4.46</ele>
        <time>2018-04-19T12:52:28Z</time>
      </trkpt>
      <trkpt lat="38.4253" lon="14.9459">
        <ele>5.91</ele>
        <time>2018-04-19T12:52:46Z</time>
      </trkpt>
      <trkpt lat="38.42485" lon="14.94562">
        <ele>4.94</ele>
        <time>2018-04-19T12:53:04Z</time>
      </trkpt>
      <trkpt lat="38.42442" lon="14.94532">
        <ele>4.46</ele>
        <time>2018-04-19T12:53:21Z</time>
      </trkpt>
      <trkpt lat="38.42406" lon="14.94506">
        <ele>3.5</ele>
        <time>2018-04-19T12:53:36Z</time>
      </trkpt>
      <trkpt lat="38.42379" lon="14.94485">
        <ele>4.46</ele>
        <time>2018-04-19T12:53:47Z</time>
      </trkpt>
      <trkpt lat="38.42348" lon="14.9446">
        <ele>4.46</ele>
        <time>2018-04-19T12:54:00Z</time>
      </trkpt>
      <trkpt lat="38.42312" lon="14.94429">
        <ele>3.5</ele>
        <time>2018-04-19T12:54:15Z</time>
      </trkpt>
      <trkpt lat="38.42282" lon="14.94406">
        <ele>2.54</ele>
        <time>2018-04-19T12:54:27Z</time>
      </trkpt>
      <trkpt lat="38.42247" lon="14.9438">
        <ele>1.58</ele>
        <time>2018-04-19T12:54:41Z</time>
      </trkpt>
      <trkpt lat="38.42215" lon="14.94358">
        <ele>1.58</ele>
        <time>2018-04-19T12:54:53Z</time>
      </trkpt>
      <trkpt lat="38.42171" lon="14.9433">
        <ele>2.54</ele>
        <time>2018-04-19T12:55:10Z</time>
      </trkpt>
      <trkpt lat="38.4214" lon="14.94311">
        <ele>2.06</ele>
        <time>2018-04-19T12:55:22Z</time>
      </trkpt>
      <trkpt lat="38.42106" lon="14.94285">
        <ele>1.1</ele>
        <time>2018-04-19T12:55:35Z</time>
      </trkpt>
      <trkpt lat="38.42079" lon="14.94265">
        <ele>0.62</ele>
        <time>2018-04-19T12:55:46Z</time>
      </trkpt>
      <trkpt lat="38.42049" lon="14.94241">
        <ele>-0.34</ele>
        <time>2018-04-19T12:55:59Z</time>
      </trkpt>
      <trkpt lat="38.42021" lon="14.94221">
        <ele>0.14</ele>
        <time>2018-04-19T12:56:10Z</time>
      </trkpt>
      <trkpt lat="38.41975" lon="14.94177">
        <ele>2.06</ele>
        <time>2018-04-19T12:56:30Z</time>
      </trkpt>
      <trkpt lat="38.41933" lon="14.94132">
        <ele>2.54</ele>
        <time>2018-04-19T12:56:49Z</time>
      </trkpt>
      <trkpt lat="38.41897" lon="14.94104">
        <ele>2.54</ele>
        <time>2018-04-19T12:57:04Z</time>
      </trkpt>
      <trkpt lat="38.41851" lon="14.94073">
        <ele>2.06</ele>
        <time>2018-04-19T12:57:22Z</time>
      </trkpt>
      <trkpt lat="38.4181" lon="14.94045">
        <ele>2.06</ele>
        <time>2018-04-19T12:57:38Z</time>
      </trkpt>
      <trkpt lat="38.41776" lon="14.94022">
        <ele>2.54</ele>
        <time>2018-04-19T12:57:52Z</time>
      </trkpt>
      <trkpt lat="38.41755" lon="14.94007">
        <ele>3.02</ele>
        <time>2018-04-19T12:58:01Z</time>
      </trkpt>
      <trkpt lat="38.41721" lon="14.93988">
        <ele>1.58</ele>
        <time>2018-04-19T12:58:14Z</time>
      </trkpt>
      <trkpt lat="38.41678" lon="14.93963">
        <ele>-0.34</ele>
        <time>2018-04-19T12:58:31Z</time>
      </trkpt>
      <trkpt lat="38.41646" lon="14.93949">
        <ele>0.62</ele>
        <time>2018-04-19T12:58:43Z</time>
      </trkpt>
      <trkpt lat="38.41611" lon="14.93934">
        <ele>1.1</ele>
        <time>2018-04-19T12:58:57Z</time>
      </trkpt>
      <trkpt lat="38.41566" lon="14.93909">
        <ele>1.58</ele>
        <time>2018-04-19T12:59:15Z</time>
      </trkpt>
      <trkpt lat="38.41518" lon="14.9388">
        <ele>1.58</ele>
        <time>2018-04-19T12:59:35Z</time>
      </trkpt>
      <trkpt lat="38.41479" lon="14.93863">
        <ele>1.58</ele>
        <time>2018-04-19T12:59:50Z</time>
      </trkpt>
      <trkpt lat="38.41438" lon="14.93845">
        <ele>2.06</ele>
        <time>2018-04-19T13:00:06Z</time>
      </trkpt>
      <trkpt lat="38.41402" lon="14.93824">
        <ele>1.1</ele>
        <time>2018-04-19T13:00:20Z</time>
      </trkpt>
      <trkpt lat="38.41376" lon="14.93802">
        <ele>0.14</ele>
        <time>2018-04-19T13:00:31Z</time>
      </trkpt>
      <trkpt lat="38.4134" lon="14.93773">
        <ele>0.14</ele>
        <time>2018-04-19T13:00:47Z</time>
      </trkpt>
      <trkpt lat="38.41311" lon="14.93748">
        <ele>-0.34</ele>
        <time>2018-04-19T13:01:00Z</time>
      </trkpt>
      <trkpt lat="38.41288" lon="14.9373">
        <ele>-2.27</ele>
        <time>2018-04-19T13:01:10Z</time>
      </trkpt>
      <trkpt lat="38.4126" lon="14.93708">
        <ele>-0.82</ele>
        <time>2018-04-19T13:01:22Z</time>
      </trkpt>
      <trkpt lat="38.41236" lon="14.93685">
        <ele>-0.82</ele>
        <time>2018-04-19T13:01:33Z</time>
      </trkpt>
      <trkpt lat="38.41205" lon="14.93652">
        <ele>-3.71</ele>
        <time>2018-04-19T13:01:48Z</time>
      </trkpt>
      <trkpt lat="38.41177" lon="14.93631">
        <ele>-3.23</ele>
        <time>2018-04-19T13:02:01Z</time>
      </trkpt>
      <trkpt lat="38.41152" lon="14.93609">
        <ele>-0.34</ele>
        <time>2018-04-19T13:02:13Z</time>
      </trkpt>
      <trkpt lat="38.41129" lon="14.93594">
        <ele>-1.3</ele>
        <time>2018-04-19T13:02:23Z</time>
      </trkpt>
      <trkpt lat="38.41079" lon="14.93559">
        <ele>-0.34</ele>
        <time>2018-04-19T13:02:45Z</time>
      </trkpt>
      <trkpt lat="38.41039" lon="14.93517">
        <ele>0.62</ele>
        <time>2018-04-19T13:03:05Z</time>
      </trkpt>
      <trkpt lat="38.40989" lon="14.9348">
        <ele>2.54</ele>
        <time>2018-04-19T13:03:28Z</time>
      </trkpt>
      <trkpt lat="38.40947" lon="14.9345">
        <ele>3.02</ele>
        <time>2018-04-19T13:03:47Z</time>
      </trkpt>
      <trkpt lat="38.40897" lon="14.93416">
        <ele>3.98</ele>
        <time>2018-04-19T13:04:09Z</time>
      </trkpt>
      <trkpt lat="38.40852" lon="14.93391">
        <ele>2.54</ele>
        <time>2018-04-19T13:04:28Z</time>
      </trkpt>
      <trkpt lat="38.40806" lon="14.93361">
        <ele>3.02</ele>
        <time>2018-04-19T13:04:48Z</time>
      </trkpt>
      <trkpt lat="38.40755" lon="14.93333">
        <ele>2.54</ele>
        <time>2018-04-19T13:05:10Z</time>
      </trkpt>
      <trkpt lat="38.40695" lon="14.93303">
        <ele>3.02</ele>
        <time>2018-04-19T13:05:35Z</time>
      </trkpt>
      <trkpt lat="38.40649" lon="14.93282">
        <ele>2.06</ele>
        <time>2018-04-19T13:05:54Z</time>
      </trkpt>
      <trkpt lat="38.40598" lon="14.93264">
        <ele>2.54</ele>
        <time>2018-04-19T13:06:14Z</time>
      </trkpt>
      <trkpt lat="38.40538" lon="14.93246">
        <ele>1.58</ele>
        <time>2018-04-19T13:06:38Z</time>
      </trkpt>
      <trkpt lat="38.40482" lon="14.9323">
        <ele>1.58</ele>
        <time>2018-04-19T13:07:00Z</time>
      </trkpt>
      <trkpt lat="38.40424" lon="14.93211">
        <ele>1.58</ele>
        <time>2018-04-19T13:07:23Z</time>
      </trkpt>
      <trkpt lat="38.40369" lon="14.93194">
        <ele>1.58</ele>
        <time>2018-04-19T13:07:45Z</time>
      </trkpt>
      <trkpt lat="38.40306" lon="14.93173">
        <ele>1.1</ele>
        <time>2018-04-19T13:08:10Z</time>
      </trkpt>
      <trkpt lat="38.40256" lon="14.93157">
        <ele>0.62</ele>
        <time>2018-04-19T13:08:30Z</time>
      </trkpt>
      <trkpt lat="38.40203" lon="14.93139">
        <ele>0.62</ele>
        <time>2018-04-19T13:08:51Z</time>
      </trkpt>
      <trkpt lat="38.40148" lon="14.9312">
        <ele>0.14</ele>
        <time>2018-04-19T13:09:13Z</time>
      </trkpt>
      <trkpt lat="38.40095" lon="14.93101">
        <ele>0.62</ele>
        <time>2018-04-19T13:09:34Z</time>
      </trkpt>
      <trkpt lat="38.40041" lon="14.93082">
        <ele>1.1</ele>
        <time>2018-04-19T13:09:55Z</time>
      </trkpt>
      <trkpt lat="38.39988" lon="14.93064">
        <ele>0.62</ele>
        <time>2018-04-19T13:10:16Z</time>
      </trkpt>
      <trkpt lat="38.39944" lon="14.93048">
        <ele>0.62</ele>
        <time>2018-04-19T13:10:33Z</time>
      </trkpt>
      <trkpt lat="38.39891" lon="14.9302">
        <ele>1.1</ele>
        <time>2018-04-19T13:10:55Z</time>
      </trkpt>
      <trkpt lat="38.39829" lon="14.92983">
        <ele>-0.34</ele>
        <time>2018-04-19T13:11:20Z</time>
      </trkpt>
      <trkpt lat="38.39772" lon="14.9295">
        <ele>-0.34</ele>
        <time>2018-04-19T13:11:43Z</time>
      </trkpt>
      <trkpt lat="38.39702" lon="14.9291">
        <ele>-0.82</ele>
        <time>2018-04-19T13:12:11Z</time>
      </trkpt>
      <trkpt lat="38.39655" lon="14.92883">
        <ele>-1.79</ele>
        <time>2018-04-19T13:12:30Z</time>
      </trkpt>
      <trkpt lat="38.39601" lon="14.92851">
        <ele>0.14</ele>
        <time>2018-04-19T13:12:52Z</time>
      </trkpt>
      <trkpt lat="38.39537" lon="14.92815">
        <ele>-1.3</ele>
        <time>2018-04-19T13:13:18Z</time>
      </trkpt>
      <trkpt lat="38.39483" lon="14.92783">
        <ele>-1.79</ele>
        <time>2018-04-19T13:13:40Z</time>
      </trkpt>
      <trkpt lat="38.39432" lon="14.92753">
        <ele>-1.79</ele>
        <time>2018-04-19T13:14:01Z</time>
      </trkpt>
      <trkpt lat="38.39373" lon="14.92719">
        <ele>-2.27</ele>
        <time>2018-04-19T13:14:25Z</time>
      </trkpt>
      <trkpt lat="38.39317" lon="14.92686">
        <ele>-2.27</ele>
        <time>2018-04-19T13:14:48Z</time>
      </trkpt>
      <trkpt lat="38.3926" lon="14.92653">
        <ele>-2.75</ele>
        <time>2018-04-19T13:15:11Z</time>
      </trkpt>
      <trkpt lat="38.39207" lon="14.9262">
        <ele>-2.75</ele>
        <time>2018-04-19T13:15:33Z</time>
      </trkpt>
      <trkpt lat="38.39153" lon="14.92588">
        <ele>-2.75</ele>
        <time>2018-04-19T13:15:55Z</time>
      </trkpt>
      <trkpt lat="38.39099" lon="14.92556">
        <ele>-2.75</ele>
        <time>2018-04-19T13:16:17Z</time>
      </trkpt>
      <trkpt lat="38.39042" lon="14.92522">
        <ele>-2.27</ele>
        <time>2018-04-19T13:16:40Z</time>
      </trkpt>
      <trkpt lat="38.38985" lon="14.92489">
        <ele>-2.27</ele>
        <time>2018-04-19T13:17:03Z</time>
      </trkpt>
      <trkpt lat="38.38934" lon="14.92458">
        <ele>-2.27</ele>
        <time>2018-04-19T13:17:24Z</time>
      </trkpt>
      <trkpt lat="38.38864" lon="14.92415">
        <ele>-2.75</ele>
        <time>2018-04-19T13:17:53Z</time>
      </trkpt>
      <trkpt lat="38.38801" lon="14.92376">
        <ele>-2.27</ele>
        <time>2018-04-19T13:18:19Z</time>
      </trkpt>
      <trkpt lat="38.38744" lon="14.92342">
        <ele>-2.75</ele>
        <time>2018-04-19T13:18:42Z</time>
      </trkpt>
      <trkpt lat="38.38683" lon="14.92305">
        <ele>-2.75</ele>
        <time>2018-04-19T13:19:07Z</time>
      </trkpt>
      <trkpt lat="38.38625" lon="14.9227">
        <ele>-2.27</ele>
        <time>2018-04-19T13:19:31Z</time>
      </trkpt>
      <trkpt lat="38.38572" lon="14.92238">
        <ele>-2.27</ele>
        <time>2018-04-19T13:19:53Z</time>
      </trkpt>
      <trkpt lat="38.38511" lon="14.92203">
        <ele>-2.27</ele>
        <time>2018-04-19T13:20:18Z</time>
      </trkpt>
      <trkpt lat="38.38445" lon="14.92165">
        <ele>-4.19</ele>
        <time>2018-04-19T13:20:46Z</time>
      </trkpt>
      <trkpt lat="38.38385" lon="14.9213">
        <ele>-4.19</ele>
        <time>2018-04-19T13:21:11Z</time>
      </trkpt>
      <trkpt lat="38.38336" lon="14.921">
        <ele>-3.71</ele>
        <time>2018-04-19T13:21:32Z</time>
      </trkpt>
      <trkpt lat="38.38269" lon="14.92062">
        <ele>-3.23</ele>
        <time>2018-04-19T13:22:00Z</time>
      </trkpt>
      <trkpt lat="38.38216" lon="14.92031">
        <ele>-2.75</ele>
        <time>2018-04-19T13:22:22Z</time>
      </trkpt>
      <trkpt lat="38.38164" lon="14.91999">
        <ele>-1.79</ele>
        <time>2018-04-19T13:22:44Z</time>
      </trkpt>
      <trkpt lat="38.3812" lon="14.91974">
        <ele>-1.79</ele>
        <time>2018-04-19T13:23:02Z</time>
      </trkpt>
      <trkpt lat="38.38072" lon="14.91945">
        <ele>-0.82</ele>
        <time>2018-04-19T13:23:22Z</time>
      </trkpt>
      <trkpt lat="38.38012" lon="14.91911">
        <ele>0.14</ele>
        <time>2018-04-19T13:23:47Z</time>
      </trkpt>
      <trkpt lat="38.37962" lon="14.91883">
        <ele>0.62</ele>
        <time>2018-04-19T13:24:07Z</time>
      </trkpt>
      <trkpt lat="38.37896" lon="14.91845">
        <ele>1.1</ele>
        <time>2018-04-19T13:24:34Z</time>
      </trkpt>
      <trkpt lat="38.37835" lon="14.91811">
        <ele>0.62</ele>
        <time>2018-04-19T13:24:58Z</time>
      </trkpt>
      <trkpt lat="38.37778" lon="14.91779">
        <ele>-0.34</ele>
        <time>2018-04-19T13:25:21Z</time>
      </trkpt>
      <trkpt lat="38.37722" lon="14.91746">
        <ele>0.62</ele>
        <time>2018-04-19T13:25:44Z</time>
      </trkpt>
      <trkpt lat="38.37664" lon="14.91715">
        <ele>0.62</ele>
        <time>2018-04-19T13:26:07Z</time>
      </trkpt>
      <trkpt lat="38.37614" lon="14.91688">
        <ele>-0.82</ele>
        <time>2018-04-19T13:26:27Z</time>
      </trkpt>
      <trkpt lat="38.37556" lon="14.91657">
        <ele>-0.82</ele>
        <time>2018-04-19T13:26:51Z</time>
      </trkpt>
      <trkpt lat="38.37499" lon="14.91625">
        <ele>-1.3</ele>
        <time>2018-04-19T13:27:14Z</time>
      </trkpt>
      <trkpt lat="38.37437" lon="14.91593">
        <ele>-1.3</ele>
        <time>2018-04-19T13:27:39Z</time>
      </trkpt>
      <trkpt lat="38.37375" lon="14.91562">
        <ele>-2.27</ele>
        <time>2018-04-19T13:28:04Z</time>
      </trkpt>
      <trkpt lat="38.37312" lon="14.9153">
        <ele>-2.27</ele>
        <time>2018-04-19T13:28:29Z</time>
      </trkpt>
      <trkpt lat="38.37252" lon="14.915">
        <ele>-2.75</ele>
        <time>2018-04-19T13:28:53Z</time>
      </trkpt>
      <trkpt lat="38.37189" lon="14.91468">
        <ele>-3.71</ele>
        <time>2018-04-19T13:29:18Z</time>
      </trkpt>
      <trkpt lat="38.37138" lon="14.91444">
        <ele>-5.15</ele>
        <time>2018-04-19T13:29:38Z</time>
      </trkpt>
      <trkpt lat="38.37068" lon="14.91411">
        <ele>-5.63</ele>
        <time>2018-04-19T13:30:06Z</time>
      </trkpt>
      <trkpt lat="38.37001" lon="14.91381">
        <ele>-5.63</ele>
        <time>2018-04-19T13:30:32Z</time>
      </trkpt>
      <trkpt lat="38.36939" lon="14.91354">
        <ele>-5.15</ele>
        <time>2018-04-19T13:30:56Z</time>
      </trkpt>
      <trkpt lat="38.36872" lon="14.91324">
        <ele>-4.19</ele>
        <time>2018-04-19T13:31:22Z</time>
      </trkpt>
      <trkpt lat="38.36809" lon="14.91296">
        <ele>-3.71</ele>
        <time>2018-04-19T13:31:46Z</time>
      </trkpt>
      <trkpt lat="38.36741" lon="14.91269">
        <ele>-3.71</ele>
        <time>2018-04-19T13:32:12Z</time>
      </trkpt>
      <trkpt lat="38.36678" lon="14.91242">
        <ele>-3.23</ele>
        <time>2018-04-19T13:32:36Z</time>
      </trkpt>
      <trkpt lat="38.36606" lon="14.91214">
        <ele>-2.75</ele>
        <time>2018-04-19T13:33:03Z</time>
      </trkpt>
      <trkpt lat="38.36536" lon="14.91185">
        <ele>-1.3</ele>
        <time>2018-04-19T13:33:30Z</time>
      </trkpt>
      <trkpt lat="38.36465" lon="14.91157">
        <ele>-0.34</ele>
        <time>2018-04-19T13:33:57Z</time>
      </trkpt>
      <trkpt lat="38.36409" lon="14.91135">
        <ele>0.14</ele>
        <time>2018-04-19T13:34:18Z</time>
      </trkpt>
      <trkpt lat="38.36354" lon="14.91113">
        <ele>-0.82</ele>
        <time>2018-04-19T13:34:39Z</time>
      </trkpt>
      <trkpt lat="38.36294" lon="14.91088">
        <ele>-1.79</ele>
        <time>2018-04-19T13:35:02Z</time>
      </trkpt>
      <trkpt lat="38.36234" lon="14.91063">
        <ele>-2.75</ele>
        <time>2018-04-19T13:35:25Z</time>
      </trkpt>
      <trkpt lat="38.36176" lon="14.91038">
        <ele>-2.27</ele>
        <time>2018-04-19T13:35:48Z</time>
      </trkpt>
      <trkpt lat="38.36113" lon="14.91013">
        <ele>-2.27</ele>
        <time>2018-04-19T13:36:12Z</time>
      </trkpt>
      <trkpt lat="38.36043" lon="14.90985">
        <ele>-2.75</ele>
        <time>2018-04-19T13:36:39Z</time>
      </trkpt>
      <trkpt lat="38.35978" lon="14.9096">
        <ele>-3.23</ele>
        <time>2018-04-19T13:37:04Z</time>
      </trkpt>
      <trkpt lat="38.35898" lon="14.90929">
        <ele>-2.75</ele>
        <time>2018-04-19T13:37:35Z</time>
      </trkpt>
      <trkpt lat="38.35836" lon="14.90903">
        <ele>-2.75</ele>
        <time>2018-04-19T13:37:59Z</time>
      </trkpt>
      <trkpt lat="38.35774" lon="14.90878">
        <ele>-3.71</ele>
        <time>2018-04-19T13:38:23Z</time>
      </trkpt>
      <trkpt lat="38.35712" lon="14.90854">
        <ele>-3.71</ele>
        <time>2018-04-19T13:38:47Z</time>
      </trkpt>
      <trkpt lat="38.35655" lon="14.90833">
        <ele>-2.75</ele>
        <time>2018-04-19T13:39:09Z</time>
      </trkpt>
      <trkpt lat="38.35579" lon="14.90805">
        <ele>-3.23</ele>
        <time>2018-04-19T13:39:38Z</time>
      </trkpt>
      <trkpt lat="38.3551" lon="14.90775">
        <ele>-2.75</ele>
        <time>2018-04-19T13:40:05Z</time>
      </trkpt>
      <trkpt lat="38.35448" lon="14.90743">
        <ele>-1.79</ele>
        <time>2018-04-19T13:40:30Z</time>
      </trkpt>
      <trkpt lat="38.35387" lon="14.90713">
        <ele>-1.3</ele>
        <time>2018-04-19T13:40:54Z</time>
      </trkpt>
      <trkpt lat="38.35334" lon="14.90687">
        <ele>-1.79</ele>
        <time>2018-04-19T13:41:15Z</time>
      </trkpt>
      <trkpt lat="38.35274" lon="14.90657">
        <ele>-1.3</ele>
        <time>2018-04-19T13:41:39Z</time>
      </trkpt>
      <trkpt lat="38.35206" lon="14.90623">
        <ele>-0.82</ele>
        <time>2018-04-19T13:42:06Z</time>
      </trkpt>
      <trkpt lat="38.35142" lon="14.90589">
        <ele>-1.3</ele>
        <time>2018-04-19T13:42:32Z</time>
      </trkpt>
      <trkpt lat="38.35077" lon="14.90557">
        <ele>-0.34</ele>
        <time>2018-04-19T13:42:58Z</time>
      </trkpt>
      <trkpt lat="38.35009" lon="14.90523">
        <ele>-0.34</ele>
        <time>2018-04-19T13:43:25Z</time>
      </trkpt>
      <trkpt lat="38.3494" lon="14.90487">
        <ele>-1.3</ele>
        <time>2018-04-19T13:43:53Z</time>
      </trkpt>
      <trkpt lat="38.34888" lon="14.90461">
        <ele>-1.3</ele>
        <time>2018-04-19T13:44:14Z</time>
      </trkpt>
      <trkpt lat="38.3483" lon="14.90432">
        <ele>-1.79</ele>
        <time>2018-04-19T13:44:37Z</time>
      </trkpt>
      <trkpt lat="38.34762" lon="14.90399">
        <ele>-0.82</ele>
        <time>2018-04-19T13:45:04Z</time>
      </trkpt>
      <trkpt lat="38.34692" lon="14.90364">
        <ele>-0.82</ele>
        <time>2018-04-19T13:45:32Z</time>
      </trkpt>
      <trkpt lat="38.34635" lon="14.90335">
        <ele>-0.82</ele>
        <time>2018-04-19T13:45:55Z</time>
      </trkpt>
      <trkpt lat="38.34566" lon="14.90299">
        <ele>-0.82</ele>
        <time>2018-04-19T13:46:23Z</time>
      </trkpt>
      <trkpt lat="38.34502" lon="14.90267">
        <ele>-0.34</ele>
        <time>2018-04-19T13:46:49Z</time>
      </trkpt>
      <trkpt lat="38.34435" lon="14.90233">
        <ele>0.62</ele>
        <time>2018-04-19T13:47:16Z</time>
      </trkpt>
      <trkpt lat="38.34372" lon="14.90202">
        <ele>0.14</ele>
        <time>2018-04-19T13:47:41Z</time>
      </trkpt>
      <trkpt lat="38.34307" lon="14.90171">
        <ele>-0.82</ele>
        <time>2018-04-19T13:48:07Z</time>
      </trkpt>
      <trkpt lat="38.34247" lon="14.90141">
        <ele>-0.82</ele>
        <time>2018-04-19T13:48:31Z</time>
      </trkpt>
      <trkpt lat="38.34185" lon="14.9011">
        <ele>-1.3</ele>
        <time>2018-04-19T13:48:56Z</time>
      </trkpt>
      <trkpt lat="38.34115" lon="14.90075">
        <ele>-1.3</ele>
        <time>2018-04-19T13:49:24Z</time>
      </trkpt>
      <trkpt lat="38.34041" lon="14.90036">
        <ele>-1.3</ele>
        <time>2018-04-19T13:49:54Z</time>
      </trkpt>
      <trkpt lat="38.33986" lon="14.90009">
        <ele>-1.79</ele>
        <time>2018-04-19T13:50:16Z</time>
      </trkpt>
      <trkpt lat="38.33929" lon="14.89981">
        <ele>-1.79</ele>
        <time>2018-04-19T13:50:39Z</time>
      </trkpt>
      <trkpt lat="38.3386" lon="14.89946">
        <ele>-1.3</ele>
        <time>2018-04-19T13:51:07Z</time>
      </trkpt>
      <trkpt lat="38.33795" lon="14.89914">
        <ele>-0.82</ele>
        <time>2018-04-19T13:51:33Z</time>
      </trkpt>
      <trkpt lat="38.33716" lon="14.89874">
        <ele>-0.82</ele>
        <time>2018-04-19T13:52:05Z</time>
      </trkpt>
      <trkpt lat="38.33652" lon="14.89843">
        <ele>-0.82</ele>
        <time>2018-04-19T13:52:31Z</time>
      </trkpt>
      <trkpt lat="38.33578" lon="14.89805">
        <ele>-2.27</ele>
        <time>2018-04-19T13:53:01Z</time>
      </trkpt>
      <trkpt lat="38.33505" lon="14.89769">
        <ele>-2.75</ele>
        <time>2018-04-19T13:53:30Z</time>
      </trkpt>
      <trkpt lat="38.33455" lon="14.89744">
        <ele>-1.3</ele>
        <time>2018-04-19T13:53:50Z</time>
      </trkpt>
      <trkpt lat="38.33387" lon="14.8971">
        <ele>-1.3</ele>
        <time>2018-04-19T13:54:17Z</time>
      </trkpt>
      <trkpt lat="38.33322" lon="14.89678">
        <ele>-1.3</ele>
        <time>2018-04-19T13:54:43Z</time>
      </trkpt>
      <trkpt lat="38.33264" lon="14.89649">
        <ele>-0.82</ele>
        <time>2018-04-19T13:55:06Z</time>
      </trkpt>
      <trkpt lat="38.33197" lon="14.89616">
        <ele>-0.82</ele>
        <time>2018-04-19T13:55:33Z</time>
      </trkpt>
      <trkpt lat="38.33136" lon="14.89586">
        <ele>-0.34</ele>
        <time>2018-04-19T13:55:57Z</time>
      </trkpt>
      <trkpt lat="38.33074" lon="14.89555">
        <ele>0.14</ele>
        <time>2018-04-19T13:56:22Z</time>
      </trkpt>
      <trkpt lat="38.33009" lon="14.89523">
        <ele>0.14</ele>
        <time>2018-04-19T13:56:48Z</time>
      </trkpt>
      <trkpt lat="38.32941" lon="14.89489">
        <ele>-0.82</ele>
        <time>2018-04-19T13:57:15Z</time>
      </trkpt>
      <trkpt lat="38.32886" lon="14.89461">
        <ele>0.14</ele>
        <time>2018-04-19T13:57:37Z</time>
      </trkpt>
      <trkpt lat="38.32831" lon="14.89434">
        <ele>0.14</ele>
        <time>2018-04-19T13:57:59Z</time>
      </trkpt>
      <trkpt lat="38.3276" lon="14.89397">
        <ele>0.62</ele>
        <time>2018-04-19T13:58:27Z</time>
      </trkpt>
      <trkpt lat="38.32708" lon="14.8937">
        <ele>0.62</ele>
        <time>2018-04-19T13:58:48Z</time>
      </trkpt>
      <trkpt lat="38.32646" lon="14.89337">
        <ele>0.62</ele>
        <time>2018-04-19T13:59:13Z</time>
      </trkpt>
      <trkpt lat="38.32584" lon="14.89304">
        <ele>0.62</ele>
        <time>2018-04-19T13:59:38Z</time>
      </trkpt>
      <trkpt lat="38.32534" lon="14.89278">
        <ele>0.62</ele>
        <time>2018-04-19T13:59:58Z</time>
      </trkpt>
      <trkpt lat="38.32472" lon="14.89247">
        <ele>0.62</ele>
        <time>2018-04-19T14:00:23Z</time>
      </trkpt>
      <trkpt lat="38.32407" lon="14.89213">
        <ele>1.1</ele>
        <time>2018-04-19T14:00:49Z</time>
      </trkpt>
      <trkpt lat="38.32337" lon="14.89176">
        <ele>-0.34</ele>
        <time>2018-04-19T14:01:17Z</time>
      </trkpt>
      <trkpt lat="38.32279" lon="14.89146">
        <ele>-0.34</ele>
        <time>2018-04-19T14:01:40Z</time>
      </trkpt>
      <trkpt lat="38.32213" lon="14.89113">
        <ele>0.14</ele>
        <time>2018-04-19T14:02:06Z</time>
      </trkpt>
      <trkpt lat="38.32161" lon="14.89085">
        <ele>-0.34</ele>
        <time>2018-04-19T14:02:27Z</time>
      </trkpt>
      <trkpt lat="38.321" lon="14.89054">
        <ele>0.14</ele>
        <time>2018-04-19T14:02:51Z</time>
      </trkpt>
      <trkpt lat="38.32033" lon="14.89018">
        <ele>-0.34</ele>
        <time>2018-04-19T14:03:18Z</time>
      </trkpt>
      <trkpt lat="38.31981" lon="14.8899">
        <ele>-0.34</ele>
        <time>2018-04-19T14:03:39Z</time>
      </trkpt>
      <trkpt lat="38.31911" lon="14.88953">
        <ele>-0.34</ele>
        <time>2018-04-19T14:04:07Z</time>
      </trkpt>
      <trkpt lat="38.31841" lon="14.88917">
        <ele>-0.82</ele>
        <time>2018-04-19T14:04:35Z</time>
      </trkpt>
      <trkpt lat="38.31783" lon="14.88886">
        <ele>-0.82</ele>
        <time>2018-04-19T14:04:58Z</time>
      </trkpt>
      <trkpt lat="38.31726" lon="14.88855">
        <ele>-1.3</ele>
        <time>2018-04-19T14:05:21Z</time>
      </trkpt>
      <trkpt lat="38.31665" lon="14.88823">
        <ele>-1.79</ele>
        <time>2018-04-19T14:05:45Z</time>
      </trkpt>
      <trkpt lat="38.31603" lon="14.88789">
        <ele>-1.79</ele>
        <time>2018-04-19T14:06:10Z</time>
      </trkpt>
      <trkpt lat="38.3154" lon="14.88756">
        <ele>-1.79</ele>
        <time>2018-04-19T14:06:35Z</time>
      </trkpt>
      <trkpt lat="38.31483" lon="14.88724">
        <ele>-2.27</ele>
        <time>2018-04-19T14:06:58Z</time>
      </trkpt>
      <trkpt lat="38.31425" lon="14.88694">
        <ele>-2.27</ele>
        <time>2018-04-19T14:07:21Z</time>
      </trkpt>
      <trkpt lat="38.31355" lon="14.88655">
        <ele>-1.3</ele>
        <time>2018-04-19T14:07:49Z</time>
      </trkpt>
      <trkpt lat="38.31299" lon="14.88626">
        <ele>-0.82</ele>
        <time>2018-04-19T14:08:11Z</time>
      </trkpt>
      <trkpt lat="38.3124" lon="14.88595">
        <ele>0.14</ele>
        <time>2018-04-19T14:08:34Z</time>
      </trkpt>
      <trkpt lat="38.3117" lon="14.88557">
        <ele>1.1</ele>
        <time>2018-04-19T14:09:02Z</time>
      </trkpt>
      <trkpt lat="38.31106" lon="14.88524">
        <ele>1.1</ele>
        <time>2018-04-19T14:09:27Z</time>
      </trkpt>
      <trkpt lat="38.31035" lon="14.88487">
        <ele>0.62</ele>
        <time>2018-04-19T14:09:55Z</time>
      </trkpt>
      <trkpt lat="38.30968" lon="14.88452">
        <ele>1.1</ele>
        <time>2018-04-19T14:10:22Z</time>
      </trkpt>
      <trkpt lat="38.30902" lon="14.88416">
        <ele>1.1</ele>
        <time>2018-04-19T14:10:48Z</time>
      </trkpt>
      <trkpt lat="38.30829" lon="14.88377">
        <ele>1.58</ele>
        <time>2018-04-19T14:11:17Z</time>
      </trkpt>
      <trkpt lat="38.30762" lon="14.88341">
        <ele>1.58</ele>
        <time>2018-04-19T14:11:44Z</time>
      </trkpt>
      <trkpt lat="38.3071" lon="14.88314">
        <ele>1.58</ele>
        <time>2018-04-19T14:12:05Z</time>
      </trkpt>
      <trkpt lat="38.30648" lon="14.8828">
        <ele>1.58</ele>
        <time>2018-04-19T14:12:30Z</time>
      </trkpt>
      <trkpt lat="38.306" lon="14.88255">
        <ele>2.06</ele>
        <time>2018-04-19T14:12:49Z</time>
      </trkpt>
      <trkpt lat="38.30533" lon="14.88219">
        <ele>3.5</ele>
        <time>2018-04-19T14:13:16Z</time>
      </trkpt>
      <trkpt lat="38.30475" lon="14.88185">
        <ele>4.46</ele>
        <time>2018-04-19T14:13:40Z</time>
      </trkpt>
      <trkpt lat="38.3042" lon="14.88155">
        <ele>3.02</ele>
        <time>2018-04-19T14:14:03Z</time>
      </trkpt>
      <trkpt lat="38.30362" lon="14.88121">
        <ele>3.98</ele>
        <time>2018-04-19T14:14:27Z</time>
      </trkpt>
      <trkpt lat="38.3031" lon="14.88092">
        <ele>4.46</ele>
        <time>2018-04-19T14:14:48Z</time>
      </trkpt>
      <trkpt lat="38.30256" lon="14.88063">
        <ele>4.46</ele>
        <time>2018-04-19T14:15:10Z</time>
      </trkpt>
      <trkpt lat="38.30197" lon="14.8803">
        <ele>3.98</ele>
        <time>2018-04-19T14:15:34Z</time>
      </trkpt>
      <trkpt lat="38.30142" lon="14.88">
        <ele>3.5</ele>
        <time>2018-04-19T14:15:56Z</time>
      </trkpt>
      <trkpt lat="38.30083" lon="14.87967">
        <ele>3.02</ele>
        <time>2018-04-19T14:16:20Z</time>
      </trkpt>
      <trkpt lat="38.30031" lon="14.87937">
        <ele>2.54</ele>
        <time>2018-04-19T14:16:41Z</time>
      </trkpt>
      <trkpt lat="38.29975" lon="14.87908">
        <ele>3.02</ele>
        <time>2018-04-19T14:17:03Z</time>
      </trkpt>
      <trkpt lat="38.2992" lon="14.87877">
        <ele>3.02</ele>
        <time>2018-04-19T14:17:25Z</time>
      </trkpt>
      <trkpt lat="38.29871" lon="14.87849">
        <ele>3.98</ele>
        <time>2018-04-19T14:17:45Z</time>
      </trkpt>
      <trkpt lat="38.29807" lon="14.87813">
        <ele>5.42</ele>
        <time>2018-04-19T14:18:11Z</time>
      </trkpt>
      <trkpt lat="38.29736" lon="14.87772">
        <ele>6.87</ele>
        <time>2018-04-19T14:18:40Z</time>
      </trkpt>
      <trkpt lat="38.29673" lon="14.87737">
        <ele>6.39</ele>
        <time>2018-04-19T14:19:05Z</time>
      </trkpt>
      <trkpt lat="38.2961" lon="14.87701">
        <ele>5.91</ele>
        <time>2018-04-19T14:19:31Z</time>
      </trkpt>
      <trkpt lat="38.29541" lon="14.87662">
        <ele>5.42</ele>
        <time>2018-04-19T14:19:59Z</time>
      </trkpt>
      <trkpt lat="38.29479" lon="14.87627">
        <ele>4.94</ele>
        <time>2018-04-19T14:20:24Z</time>
      </trkpt>
      <trkpt lat="38.29416" lon="14.8759">
        <ele>3.98</ele>
        <time>2018-04-19T14:20:50Z</time>
      </trkpt>
      <trkpt lat="38.29354" lon="14.87555">
        <ele>3.5</ele>
        <time>2018-04-19T14:21:15Z</time>
      </trkpt>
      <trkpt lat="38.29302" lon="14.87525">
        <ele>3.02</ele>
        <time>2018-04-19T14:21:36Z</time>
      </trkpt>
      <trkpt lat="38.2925" lon="14.87496">
        <ele>3.5</ele>
        <time>2018-04-19T14:21:57Z</time>
      </trkpt>
      <trkpt lat="38.29195" lon="14.87465">
        <ele>2.54</ele>
        <time>2018-04-19T14:22:19Z</time>
      </trkpt>
      <trkpt lat="38.29135" lon="14.87432">
        <ele>3.5</ele>
        <time>2018-04-19T14:22:43Z</time>
      </trkpt>
      <trkpt lat="38.29096" lon="14.87409">
        <ele>3.02</ele>
        <time>2018-04-19T14:22:59Z</time>
      </trkpt>
      <trkpt lat="38.29032" lon="14.87372">
        <ele>3.5</ele>
        <time>2018-04-19T14:23:26Z</time>
      </trkpt>
      <trkpt lat="38.28975" lon="14.8734">
        <ele>4.46</ele>
        <time>2018-04-19T14:23:52Z</time>
      </trkpt>
      <trkpt lat="38.28914" lon="14.87306">
        <ele>4.46</ele>
        <time>2018-04-19T14:24:19Z</time>
      </trkpt>
      <trkpt lat="38.28851" lon="14.87269">
        <ele>3.02</ele>
        <time>2018-04-19T14:24:47Z</time>
      </trkpt>
      <trkpt lat="38.28792" lon="14.87235">
        <ele>2.54</ele>
        <time>2018-04-19T14:25:13Z</time>
      </trkpt>
      <trkpt lat="38.28735" lon="14.87203">
        <ele>3.02</ele>
        <time>2018-04-19T14:25:38Z</time>
      </trkpt>
      <trkpt lat="38.28694" lon="14.87181">
        <ele>1.58</ele>
        <time>2018-04-19T14:25:56Z</time>
      </trkpt>
      <trkpt lat="38.28645" lon="14.87154">
        <ele>0.14</ele>
        <time>2018-04-19T14:26:18Z</time>
      </trkpt>
      <trkpt lat="38.28602" lon="14.8713">
        <ele>-0.34</ele>
        <time>2018-04-19T14:26:37Z</time>
      </trkpt>
      <trkpt lat="38.28564" lon="14.87109">
        <ele>-0.82</ele>
        <time>2018-04-19T14:26:54Z</time>
      </trkpt>
      <trkpt lat="38.28514" lon="14.87081">
        <ele>-0.34</ele>
        <time>2018-04-19T14:27:16Z</time>
      </trkpt>
      <trkpt lat="38.28468" lon="14.87056">
        <ele>0.62</ele>
        <time>2018-04-19T14:27:36Z</time>
      </trkpt>
      <trkpt lat="38.28423" lon="14.87032">
        <ele>0.14</ele>
        <time>2018-04-19T14:27:56Z</time>
      </trkpt>
      <trkpt lat="38.28366" lon="14.87">
        <ele>1.58</ele>
        <time>2018-04-19T14:28:21Z</time>
      </trkpt>
      <trkpt lat="38.28324" lon="14.86976">
        <ele>2.06</ele>
        <time>2018-04-19T14:28:40Z</time>
      </trkpt>
      <trkpt lat="38.28275" lon="14.86948">
        <ele>1.58</ele>
        <time>2018-04-19T14:29:02Z</time>
      </trkpt>
      <trkpt lat="38.28225" lon="14.8692">
        <ele>2.06</ele>
        <time>2018-04-19T14:29:24Z</time>
      </trkpt>
      <trkpt lat="38.28169" lon="14.86889">
        <ele>1.58</ele>
        <time>2018-04-19T14:29:49Z</time>
      </trkpt>
      <trkpt lat="38.28121" lon="14.86861">
        <ele>1.1</ele>
        <time>2018-04-19T14:30:11Z</time>
      </trkpt>
      <trkpt lat="38.28072" lon="14.86835">
        <ele>2.54</ele>
        <time>2018-04-19T14:30:32Z</time>
      </trkpt>
      <trkpt lat="38.28018" lon="14.86806">
        <ele>3.02</ele>
        <time>2018-04-19T14:30:54Z</time>
      </trkpt>
      <trkpt lat="38.27962" lon="14.86776">
        <ele>2.54</ele>
        <time>2018-04-19T14:31:15Z</time>
      </trkpt>
      <trkpt lat="38.27885" lon="14.86731">
        <ele>3.02</ele>
        <time>2018-04-19T14:31:43Z</time>
      </trkpt>
      <trkpt lat="38.27823" lon="14.86689">
        <ele>3.02</ele>
        <time>2018-04-19T14:32:07Z</time>
      </trkpt>
      <trkpt lat="38.27764" lon="14.86648">
        <ele>1.58</ele>
        <time>2018-04-19T14:32:30Z</time>
      </trkpt>
      <trkpt lat="38.27708" lon="14.86612">
        <ele>2.06</ele>
        <time>2018-04-19T14:32:51Z</time>
      </trkpt>
      <trkpt lat="38.27653" lon="14.86576">
        <ele>2.06</ele>
        <time>2018-04-19T14:33:12Z</time>
      </trkpt>
      <trkpt lat="38.27593" lon="14.86535">
        <ele>1.58</ele>
        <time>2018-04-19T14:33:35Z</time>
      </trkpt>
      <trkpt lat="38.27527" lon="14.8649">
        <ele>1.1</ele>
        <time>2018-04-19T14:34:00Z</time>
      </trkpt>
      <trkpt lat="38.27467" lon="14.86435">
        <ele>3.5</ele>
        <time>2018-04-19T14:34:25Z</time>
      </trkpt>
      <trkpt lat="38.27419" lon="14.86386">
        <ele>3.5</ele>
        <time>2018-04-19T14:34:46Z</time>
      </trkpt>
      <trkpt lat="38.27363" lon="14.86343">
        <ele>2.54</ele>
        <time>2018-04-19T14:35:08Z</time>
      </trkpt>
      <trkpt lat="38.27298" lon="14.86297">
        <ele>2.54</ele>
        <time>2018-04-19T14:35:33Z</time>
      </trkpt>
      <trkpt lat="38.27228" lon="14.86249">
        <ele>2.06</ele>
        <time>2018-04-19T14:36:00Z</time>
      </trkpt>
      <trkpt lat="38.27143" lon="14.86192">
        <ele>2.06</ele>
        <time>2018-04-19T14:36:32Z</time>
      </trkpt>
      <trkpt lat="38.2708" lon="14.86149">
        <ele>2.06</ele>
        <time>2018-04-19T14:36:56Z</time>
      </trkpt>
      <trkpt lat="38.27011" lon="14.86102">
        <ele>2.06</ele>
        <time>2018-04-19T14:37:22Z</time>
      </trkpt>
      <trkpt lat="38.26953" lon="14.86062">
        <ele>2.54</ele>
        <time>2018-04-19T14:37:44Z</time>
      </trkpt>
      <trkpt lat="38.26888" lon="14.86019">
        <ele>3.02</ele>
        <time>2018-04-19T14:38:09Z</time>
      </trkpt>
      <trkpt lat="38.26814" lon="14.85971">
        <ele>2.54</ele>
        <time>2018-04-19T14:38:37Z</time>
      </trkpt>
      <trkpt lat="38.26747" lon="14.85926">
        <ele>2.54</ele>
        <time>2018-04-19T14:39:03Z</time>
      </trkpt>
      <trkpt lat="38.26687" lon="14.85886">
        <ele>2.06</ele>
        <time>2018-04-19T14:39:26Z</time>
      </trkpt>
      <trkpt lat="38.2662" lon="14.8584">
        <ele>3.02</ele>
        <time>2018-04-19T14:39:52Z</time>
      </trkpt>
      <trkpt lat="38.2656" lon="14.85799">
        <ele>3.5</ele>
        <time>2018-04-19T14:40:15Z</time>
      </trkpt>
      <trkpt lat="38.26481" lon="14.85746">
        <ele>3.02</ele>
        <time>2018-04-19T14:40:46Z</time>
      </trkpt>
      <trkpt lat="38.26412" lon="14.85701">
        <ele>3.02</ele>
        <time>2018-04-19T14:41:13Z</time>
      </trkpt>
      <trkpt lat="38.26352" lon="14.85661">
        <ele>3.5</ele>
        <time>2018-04-19T14:41:36Z</time>
      </trkpt>
      <trkpt lat="38.26281" lon="14.85614">
        <ele>3.5</ele>
        <time>2018-04-19T14:42:04Z</time>
      </trkpt>
      <trkpt lat="38.26208" lon="14.85568">
        <ele>3.98</ele>
        <time>2018-04-19T14:42:32Z</time>
      </trkpt>
      <trkpt lat="38.26142" lon="14.85525">
        <ele>4.46</ele>
        <time>2018-04-19T14:42:58Z</time>
      </trkpt>
      <trkpt lat="38.26073" lon="14.85479">
        <ele>4.94</ele>
        <time>2018-04-19T14:43:25Z</time>
      </trkpt>
      <trkpt lat="38.26006" lon="14.85437">
        <ele>4.94</ele>
        <time>2018-04-19T14:43:51Z</time>
      </trkpt>
      <trkpt lat="38.25937" lon="14.85393">
        <ele>4.94</ele>
        <time>2018-04-19T14:44:18Z</time>
      </trkpt>
      <trkpt lat="38.25868" lon="14.8535">
        <ele>4.94</ele>
        <time>2018-04-19T14:44:45Z</time>
      </trkpt>
      <trkpt lat="38.2581" lon="14.85314">
        <ele>4.94</ele>
        <time>2018-04-19T14:45:08Z</time>
      </trkpt>
      <trkpt lat="38.25736" lon="14.85268">
        <ele>3.98</ele>
        <time>2018-04-19T14:45:37Z</time>
      </trkpt>
      <trkpt lat="38.25681" lon="14.85234">
        <ele>3.98</ele>
        <time>2018-04-19T14:45:58Z</time>
      </trkpt>
      <trkpt lat="38.25625" lon="14.85197">
        <ele>3.5</ele>
        <time>2018-04-19T14:46:20Z</time>
      </trkpt>
      <trkpt lat="38.25564" lon="14.8516">
        <ele>3.98</ele>
        <time>2018-04-19T14:46:44Z</time>
      </trkpt>
      <trkpt lat="38.25504" lon="14.8512">
        <ele>3.98</ele>
        <time>2018-04-19T14:47:08Z</time>
      </trkpt>
      <trkpt lat="38.25429" lon="14.8507">
        <ele>3.5</ele>
        <time>2018-04-19T14:47:38Z</time>
      </trkpt>
      <trkpt lat="38.25373" lon="14.85033">
        <ele>3.5</ele>
        <time>2018-04-19T14:48:01Z</time>
      </trkpt>
      <trkpt lat="38.25312" lon="14.84994">
        <ele>4.46</ele>
        <time>2018-04-19T14:48:25Z</time>
      </trkpt>
      <trkpt lat="38.25258" lon="14.84958">
        <ele>3.98</ele>
        <time>2018-04-19T14:48:47Z</time>
      </trkpt>
      <trkpt lat="38.25205" lon="14.84925">
        <ele>3.5</ele>
        <time>2018-04-19T14:49:08Z</time>
      </trkpt>
      <trkpt lat="38.25153" lon="14.84892">
        <ele>3.5</ele>
        <time>2018-04-19T14:49:29Z</time>
      </trkpt>
      <trkpt lat="38.25088" lon="14.8485">
        <ele>3.98</ele>
        <time>2018-04-19T14:49:55Z</time>
      </trkpt>
      <trkpt lat="38.25029" lon="14.84812">
        <ele>3.98</ele>
        <time>2018-04-19T14:50:19Z</time>
      </trkpt>
      <trkpt lat="38.24972" lon="14.84774">
        <ele>3.98</ele>
        <time>2018-04-19T14:50:42Z</time>
      </trkpt>
      <trkpt lat="38.24916" lon="14.84737">
        <ele>3.98</ele>
        <time>2018-04-19T14:51:05Z</time>
      </trkpt>
      <trkpt lat="38.24862" lon="14.84701">
        <ele>3.98</ele>
        <time>2018-04-19T14:51:27Z</time>
      </trkpt>
      <trkpt lat="38.24806" lon="14.84666">
        <ele>3.5</ele>
        <time>2018-04-19T14:51:49Z</time>
      </trkpt>
      <trkpt lat="38.24746" lon="14.84628">
        <ele>3.98</ele>
        <time>2018-04-19T14:52:13Z</time>
      </trkpt>
      <trkpt lat="38.24691" lon="14.84592">
        <ele>4.46</ele>
        <time>2018-04-19T14:52:35Z</time>
      </trkpt>
      <trkpt lat="38.2463" lon="14.84555">
        <ele>3.98</ele>
        <time>2018-04-19T14:52:59Z</time>
      </trkpt>
      <trkpt lat="38.24572" lon="14.84518">
        <ele>4.46</ele>
        <time>2018-04-19T14:53:22Z</time>
      </trkpt>
      <trkpt lat="38.24507" lon="14.84476">
        <ele>4.46</ele>
        <time>2018-04-19T14:53:48Z</time>
      </trkpt>
      <trkpt lat="38.24451" lon="14.84441">
        <ele>4.46</ele>
        <time>2018-04-19T14:54:10Z</time>
      </trkpt>
      <trkpt lat="38.24382" lon="14.84397">
        <ele>4.46</ele>
        <time>2018-04-19T14:54:37Z</time>
      </trkpt>
      <trkpt lat="38.24316" lon="14.84357">
        <ele>3.5</ele>
        <time>2018-04-19T14:55:03Z</time>
      </trkpt>
      <trkpt lat="38.24266" lon="14.84324">
        <ele>3.98</ele>
        <time>2018-04-19T14:55:24Z</time>
      </trkpt>
      <trkpt lat="38.24234" lon="14.84309">
        <ele>3.98</ele>
        <time>2018-04-19T14:55:45Z</time>
      </trkpt>
      <trkpt lat="38.24195" lon="14.84286">
        <ele>3.5</ele>
        <time>2018-04-19T14:56:07Z</time>
      </trkpt>
      <trkpt lat="38.24123" lon="14.84242">
        <ele>3.5</ele>
        <time>2018-04-19T14:56:36Z</time>
      </trkpt>
      <trkpt lat="38.24079" lon="14.84217">
        <ele>3.02</ele>
        <time>2018-04-19T14:56:59Z</time>
      </trkpt>
      <trkpt lat="38.24052" lon="14.84187">
        <ele>2.54</ele>
        <time>2018-04-19T14:57:24Z</time>
      </trkpt>
      <trkpt lat="38.24021" lon="14.84164">
        <ele>1.1</ele>
        <time>2018-04-19T14:57:51Z</time>
      </trkpt>
      <trkpt lat="38.23989" lon="14.84142">
        <ele>1.58</ele>
        <time>2018-04-19T14:58:17Z</time>
      </trkpt>
      <trkpt lat="38.23953" lon="14.84126">
        <ele>2.06</ele>
        <time>2018-04-19T14:58:44Z</time>
      </trkpt>
      <trkpt lat="38.23928" lon="14.84112">
        <ele>2.06</ele>
        <time>2018-04-19T14:59:05Z</time>
      </trkpt>
      <trkpt lat="38.23902" lon="14.84098">
        <ele>2.06</ele>
        <time>2018-04-19T14:59:24Z</time>
      </trkpt>
      <trkpt lat="38.2387" lon="14.84076">
        <ele>3.02</ele>
        <time>2018-04-19T14:59:44Z</time>
      </trkpt>
      <trkpt lat="38.23827" lon="14.84048">
        <ele>2.54</ele>
        <time>2018-04-19T15:00:09Z</time>
      </trkpt>
      <trkpt lat="38.23772" lon="14.84007">
        <ele>3.02</ele>
        <time>2018-04-19T15:00:35Z</time>
      </trkpt>
      <trkpt lat="38.23713" lon="14.83964">
        <ele>3.5</ele>
        <time>2018-04-19T15:00:59Z</time>
      </trkpt>
      <trkpt lat="38.23652" lon="14.83922">
        <ele>3.02</ele>
        <time>2018-04-19T15:01:23Z</time>
      </trkpt>
      <trkpt lat="38.23585" lon="14.83875">
        <ele>3.02</ele>
        <time>2018-04-19T15:01:50Z</time>
      </trkpt>
      <trkpt lat="38.23533" lon="14.83838">
        <ele>3.02</ele>
        <time>2018-04-19T15:02:11Z</time>
      </trkpt>
      <trkpt lat="38.23477" lon="14.838">
        <ele>3.02</ele>
        <time>2018-04-19T15:02:33Z</time>
      </trkpt>
      <trkpt lat="38.23413" lon="14.83753">
        <ele>2.54</ele>
        <time>2018-04-19T15:02:59Z</time>
      </trkpt>
      <trkpt lat="38.2336" lon="14.83715">
        <ele>2.54</ele>
        <time>2018-04-19T15:03:20Z</time>
      </trkpt>
      <trkpt lat="38.23299" lon="14.83673">
        <ele>3.02</ele>
        <time>2018-04-19T15:03:44Z</time>
      </trkpt>
      <trkpt lat="38.23232" lon="14.83625">
        <ele>3.5</ele>
        <time>2018-04-19T15:04:11Z</time>
      </trkpt>
      <trkpt lat="38.23174" lon="14.83583">
        <ele>3.98</ele>
        <time>2018-04-19T15:04:34Z</time>
      </trkpt>
      <trkpt lat="38.23104" lon="14.83531">
        <ele>4.46</ele>
        <time>2018-04-19T15:05:02Z</time>
      </trkpt>
      <trkpt lat="38.23039" lon="14.83484">
        <ele>4.94</ele>
        <time>2018-04-19T15:05:28Z</time>
      </trkpt>
      <trkpt lat="38.22976" lon="14.83437">
        <ele>3.5</ele>
        <time>2018-04-19T15:05:53Z</time>
      </trkpt>
      <trkpt lat="38.22921" lon="14.83398">
        <ele>3.02</ele>
        <time>2018-04-19T15:06:15Z</time>
      </trkpt>
      <trkpt lat="38.22866" lon="14.83357">
        <ele>3.5</ele>
        <time>2018-04-19T15:06:37Z</time>
      </trkpt>
      <trkpt lat="38.22808" lon="14.83314">
        <ele>2.06</ele>
        <time>2018-04-19T15:07:00Z</time>
      </trkpt>
      <trkpt lat="38.2275" lon="14.83271">
        <ele>1.1</ele>
        <time>2018-04-19T15:07:23Z</time>
      </trkpt>
      <trkpt lat="38.22699" lon="14.83236">
        <ele>1.58</ele>
        <time>2018-04-19T15:07:43Z</time>
      </trkpt>
      <trkpt lat="38.22636" lon="14.83191">
        <ele>2.06</ele>
        <time>2018-04-19T15:08:08Z</time>
      </trkpt>
      <trkpt lat="38.2258" lon="14.83149">
        <ele>3.02</ele>
        <time>2018-04-19T15:08:31Z</time>
      </trkpt>
      <trkpt lat="38.22513" lon="14.83099">
        <ele>3.98</ele>
        <time>2018-04-19T15:08:58Z</time>
      </trkpt>
      <trkpt lat="38.22449" lon="14.8305">
        <ele>3.5</ele>
        <time>2018-04-19T15:09:24Z</time>
      </trkpt>
      <trkpt lat="38.22399" lon="14.83013">
        <ele>3.98</ele>
        <time>2018-04-19T15:09:44Z</time>
      </trkpt>
      <trkpt lat="38.22358" lon="14.82983">
        <ele>3.02</ele>
        <time>2018-04-19T15:10:01Z</time>
      </trkpt>
      <trkpt lat="38.22293" lon="14.82935">
        <ele>2.54</ele>
        <time>2018-04-19T15:10:27Z</time>
      </trkpt>
      <trkpt lat="38.2223" lon="14.82889">
        <ele>1.58</ele>
        <time>2018-04-19T15:10:52Z</time>
      </trkpt>
      <trkpt lat="38.22164" lon="14.82843">
        <ele>1.1</ele>
        <time>2018-04-19T15:11:18Z</time>
      </trkpt>
      <trkpt lat="38.22101" lon="14.82798">
        <ele>2.06</ele>
        <time>2018-04-19T15:11:43Z</time>
      </trkpt>
      <trkpt lat="38.22031" lon="14.82749">
        <ele>1.58</ele>
        <time>2018-04-19T15:12:11Z</time>
      </trkpt>
      <trkpt lat="38.21963" lon="14.82702">
        <ele>3.02</ele>
        <time>2018-04-19T15:12:38Z</time>
      </trkpt>
      <trkpt lat="38.21898" lon="14.82658">
        <ele>3.5</ele>
        <time>2018-04-19T15:13:04Z</time>
      </trkpt>
      <trkpt lat="38.21838" lon="14.82617">
        <ele>3.5</ele>
        <time>2018-04-19T15:13:28Z</time>
      </trkpt>
      <trkpt lat="38.21771" lon="14.82572">
        <ele>3.02</ele>
        <time>2018-04-19T15:13:55Z</time>
      </trkpt>
      <trkpt lat="38.21724" lon="14.8254">
        <ele>3.5</ele>
        <time>2018-04-19T15:14:14Z</time>
      </trkpt>
      <trkpt lat="38.21679" lon="14.82506">
        <ele>3.02</ele>
        <time>2018-04-19T15:14:33Z</time>
      </trkpt>
      <trkpt lat="38.21624" lon="14.82468">
        <ele>3.02</ele>
        <time>2018-04-19T15:14:55Z</time>
      </trkpt>
      <trkpt lat="38.21563" lon="14.82427">
        <ele>2.54</ele>
        <time>2018-04-19T15:15:20Z</time>
      </trkpt>
      <trkpt lat="38.215" lon="14.82382">
        <ele>3.02</ele>
        <time>2018-04-19T15:15:46Z</time>
      </trkpt>
      <trkpt lat="38.21435" lon="14.82339">
        <ele>3.02</ele>
        <time>2018-04-19T15:16:12Z</time>
      </trkpt>
      <trkpt lat="38.2137" lon="14.82293">
        <ele>2.54</ele>
        <time>2018-04-19T15:16:39Z</time>
      </trkpt>
      <trkpt lat="38.21301" lon="14.82246">
        <ele>2.54</ele>
        <time>2018-04-19T15:17:07Z</time>
      </trkpt>
      <trkpt lat="38.21228" lon="14.82196">
        <ele>2.54</ele>
        <time>2018-04-19T15:17:37Z</time>
      </trkpt>
      <trkpt lat="38.21172" lon="14.82158">
        <ele>2.54</ele>
        <time>2018-04-19T15:18:00Z</time>
      </trkpt>
      <trkpt lat="38.21118" lon="14.82122">
        <ele>3.02</ele>
        <time>2018-04-19T15:18:22Z</time>
      </trkpt>
      <trkpt lat="38.21057" lon="14.82081">
        <ele>3.5</ele>
        <time>2018-04-19T15:18:47Z</time>
      </trkpt>
      <trkpt lat="38.20994" lon="14.82039">
        <ele>3.5</ele>
        <time>2018-04-19T15:19:13Z</time>
      </trkpt>
      <trkpt lat="38.20942" lon="14.82004">
        <ele>3.98</ele>
        <time>2018-04-19T15:19:34Z</time>
      </trkpt>
      <trkpt lat="38.2088" lon="14.81964">
        <ele>4.46</ele>
        <time>2018-04-19T15:19:59Z</time>
      </trkpt>
      <trkpt lat="38.20826" lon="14.81929">
        <ele>3.98</ele>
        <time>2018-04-19T15:20:21Z</time>
      </trkpt>
      <trkpt lat="38.20765" lon="14.81888">
        <ele>3.98</ele>
        <time>2018-04-19T15:20:46Z</time>
      </trkpt>
      <trkpt lat="38.2071" lon="14.81852">
        <ele>3.98</ele>
        <time>2018-04-19T15:21:08Z</time>
      </trkpt>
      <trkpt lat="38.20656" lon="14.81817">
        <ele>4.46</ele>
        <time>2018-04-19T15:21:30Z</time>
      </trkpt>
      <trkpt lat="38.20597" lon="14.81777">
        <ele>5.42</ele>
        <time>2018-04-19T15:21:54Z</time>
      </trkpt>
      <trkpt lat="38.20537" lon="14.81739">
        <ele>4.94</ele>
        <time>2018-04-19T15:22:18Z</time>
      </trkpt>
      <trkpt lat="38.20476" lon="14.81699">
        <ele>5.42</ele>
        <time>2018-04-19T15:22:43Z</time>
      </trkpt>
      <trkpt lat="38.20414" lon="14.81659">
        <ele>6.39</ele>
        <time>2018-04-19T15:23:08Z</time>
      </trkpt>
      <trkpt lat="38.20358" lon="14.81625">
        <ele>5.91</ele>
        <time>2018-04-19T15:23:30Z</time>
      </trkpt>
      <trkpt lat="38.20298" lon="14.81587">
        <ele>4.46</ele>
        <time>2018-04-19T15:23:54Z</time>
      </trkpt>
      <trkpt lat="38.20228" lon="14.81543">
        <ele>4.46</ele>
        <time>2018-04-19T15:24:22Z</time>
      </trkpt>
      <trkpt lat="38.20161" lon="14.815">
        <ele>3.98</ele>
        <time>2018-04-19T15:24:49Z</time>
      </trkpt>
      <trkpt lat="38.20084" lon="14.81453">
        <ele>4.46</ele>
        <time>2018-04-19T15:25:19Z</time>
      </trkpt>
      <trkpt lat="38.20019" lon="14.81414">
        <ele>4.46</ele>
        <time>2018-04-19T15:25:44Z</time>
      </trkpt>
      <trkpt lat="38.19949" lon="14.8137">
        <ele>4.94</ele>
        <time>2018-04-19T15:26:11Z</time>
      </trkpt>
      <trkpt lat="38.1988" lon="14.81328">
        <ele>3.98</ele>
        <time>2018-04-19T15:26:38Z</time>
      </trkpt>
      <trkpt lat="38.19807" lon="14.81282">
        <ele>4.46</ele>
        <time>2018-04-19T15:27:07Z</time>
      </trkpt>
      <trkpt lat="38.19752" lon="14.81247">
        <ele>3.98</ele>
        <time>2018-04-19T15:27:29Z</time>
      </trkpt>
      <trkpt lat="38.1969" lon="14.81206">
        <ele>4.46</ele>
        <time>2018-04-19T15:27:54Z</time>
      </trkpt>
      <trkpt lat="38.19622" lon="14.81161">
        <ele>4.94</ele>
        <time>2018-04-19T15:28:21Z</time>
      </trkpt>
      <trkpt lat="38.19569" lon="14.81126">
        <ele>4.46</ele>
        <time>2018-04-19T15:28:42Z</time>
      </trkpt>
      <trkpt lat="38.19511" lon="14.81084">
        <ele>3.98</ele>
        <time>2018-04-19T15:29:05Z</time>
      </trkpt>
      <trkpt lat="38.19462" lon="14.81047">
        <ele>3.98</ele>
        <time>2018-04-19T15:29:25Z</time>
      </trkpt>
      <trkpt lat="38.194" lon="14.80998">
        <ele>4.46</ele>
        <time>2018-04-19T15:29:51Z</time>
      </trkpt>
      <trkpt lat="38.19354" lon="14.80963">
        <ele>3.5</ele>
        <time>2018-04-19T15:30:10Z</time>
      </trkpt>
      <trkpt lat="38.19302" lon="14.80922">
        <ele>3.98</ele>
        <time>2018-04-19T15:30:31Z</time>
      </trkpt>
      <trkpt lat="38.19246" lon="14.80877">
        <ele>4.46</ele>
        <time>2018-04-19T15:30:54Z</time>
      </trkpt>
      <trkpt lat="38.19184" lon="14.80829">
        <ele>4.46</ele>
        <time>2018-04-19T15:31:19Z</time>
      </trkpt>
      <trkpt lat="38.19118" lon="14.80775">
        <ele>3.98</ele>
        <time>2018-04-19T15:31:46Z</time>
      </trkpt>
      <trkpt lat="38.19062" lon="14.8073">
        <ele>4.94</ele>
        <time>2018-04-19T15:32:09Z</time>
      </trkpt>
      <trkpt lat="38.1899" lon="14.8067">
        <ele>5.42</ele>
        <time>2018-04-19T15:32:38Z</time>
      </trkpt>
      <trkpt lat="38.18933" lon="14.8062">
        <ele>4.94</ele>
        <time>2018-04-19T15:33:01Z</time>
      </trkpt>
      <trkpt lat="38.18868" lon="14.80565">
        <ele>4.94</ele>
        <time>2018-04-19T15:33:27Z</time>
      </trkpt>
      <trkpt lat="38.18809" lon="14.80512">
        <ele>5.42</ele>
        <time>2018-04-19T15:33:51Z</time>
      </trkpt>
      <trkpt lat="38.18753" lon="14.80465">
        <ele>4.94</ele>
        <time>2018-04-19T15:34:13Z</time>
      </trkpt>
      <trkpt lat="38.1869" lon="14.8041">
        <ele>5.42</ele>
        <time>2018-04-19T15:34:38Z</time>
      </trkpt>
      <trkpt lat="38.18622" lon="14.80351">
        <ele>3.98</ele>
        <time>2018-04-19T15:35:05Z</time>
      </trkpt>
      <trkpt lat="38.18561" lon="14.80295">
        <ele>3.02</ele>
        <time>2018-04-19T15:35:29Z</time>
      </trkpt>
      <trkpt lat="38.18492" lon="14.80235">
        <ele>3.02</ele>
        <time>2018-04-19T15:35:56Z</time>
      </trkpt>
      <trkpt lat="38.18426" lon="14.80176">
        <ele>3.5</ele>
        <time>2018-04-19T15:36:22Z</time>
      </trkpt>
      <trkpt lat="38.18362" lon="14.8012">
        <ele>3.98</ele>
        <time>2018-04-19T15:36:47Z</time>
      </trkpt>
      <trkpt lat="38.18306" lon="14.80072">
        <ele>3.5</ele>
        <time>2018-04-19T15:37:09Z</time>
      </trkpt>
      <trkpt lat="38.18244" lon="14.80015">
        <ele>4.46</ele>
        <time>2018-04-19T15:37:34Z</time>
      </trkpt>
      <trkpt lat="38.18182" lon="14.79956">
        <ele>3.02</ele>
        <time>2018-04-19T15:37:59Z</time>
      </trkpt>
      <trkpt lat="38.18128" lon="14.79904">
        <ele>3.5</ele>
        <time>2018-04-19T15:38:21Z</time>
      </trkpt>
      <trkpt lat="38.18065" lon="14.79848">
        <ele>3.98</ele>
        <time>2018-04-19T15:38:46Z</time>
      </trkpt>
      <trkpt lat="38.18002" lon="14.79792">
        <ele>4.94</ele>
        <time>2018-04-19T15:39:11Z</time>
      </trkpt>
      <trkpt lat="38.17935" lon="14.79731">
        <ele>4.46</ele>
        <time>2018-04-19T15:39:38Z</time>
      </trkpt>
      <trkpt lat="38.17868" lon="14.79669">
        <ele>5.42</ele>
        <time>2018-04-19T15:40:05Z</time>
      </trkpt>
      <trkpt lat="38.17811" lon="14.79617">
        <ele>4.46</ele>
        <time>2018-04-19T15:40:28Z</time>
      </trkpt>
      <trkpt lat="38.17753" lon="14.79562">
        <ele>4.94</ele>
        <time>2018-04-19T15:40:52Z</time>
      </trkpt>
      <trkpt lat="38.177" lon="14.79511">
        <ele>4.94</ele>
        <time>2018-04-19T15:41:14Z</time>
      </trkpt>
      <trkpt lat="38.17636" lon="14.79451">
        <ele>3.98</ele>
        <time>2018-04-19T15:41:40Z</time>
      </trkpt>
      <trkpt lat="38.17571" lon="14.79392">
        <ele>3.98</ele>
        <time>2018-04-19T15:42:06Z</time>
      </trkpt>
      <trkpt lat="38.17509" lon="14.79334">
        <ele>4.46</ele>
        <time>2018-04-19T15:42:31Z</time>
      </trkpt>
      <trkpt lat="38.17447" lon="14.79279">
        <ele>3.98</ele>
        <time>2018-04-19T15:42:56Z</time>
      </trkpt>
      <trkpt lat="38.17398" lon="14.79237">
        <ele>4.46</ele>
        <time>2018-04-19T15:43:18Z</time>
      </trkpt>
      <trkpt lat="38.1735" lon="14.79193">
        <ele>3.98</ele>
        <time>2018-04-19T15:43:41Z</time>
      </trkpt>
      <trkpt lat="38.17297" lon="14.79147">
        <ele>3.02</ele>
        <time>2018-04-19T15:44:06Z</time>
      </trkpt>
      <trkpt lat="38.17247" lon="14.79102">
        <ele>4.46</ele>
        <time>2018-04-19T15:44:30Z</time>
      </trkpt>
      <trkpt lat="38.17187" lon="14.7905">
        <ele>4.94</ele>
        <time>2018-04-19T15:44:56Z</time>
      </trkpt>
      <trkpt lat="38.17148" lon="14.79016">
        <ele>5.91</ele>
        <time>2018-04-19T15:45:17Z</time>
      </trkpt>
      <trkpt lat="38.17111" lon="14.79013">
        <ele>5.91</ele>
        <time>2018-04-19T15:45:34Z</time>
      </trkpt>
      <trkpt lat="38.17068" lon="14.79008">
        <ele>6.87</ele>
        <time>2018-04-19T15:45:55Z</time>
      </trkpt>
      <trkpt lat="38.17021" lon="14.78998">
        <ele>7.35</ele>
        <time>2018-04-19T15:46:18Z</time>
      </trkpt>
      <trkpt lat="38.16981" lon="14.78984">
        <ele>7.83</ele>
        <time>2018-04-19T15:46:38Z</time>
      </trkpt>
      <trkpt lat="38.16932" lon="14.78964">
        <ele>7.35</ele>
        <time>2018-04-19T15:47:03Z</time>
      </trkpt>
      <trkpt lat="38.16884" lon="14.78941">
        <ele>5.91</ele>
        <time>2018-04-19T15:47:27Z</time>
      </trkpt>
      <trkpt lat="38.1684" lon="14.78915">
        <ele>4.46</ele>
        <time>2018-04-19T15:47:51Z</time>
      </trkpt>
      <trkpt lat="38.16793" lon="14.78887">
        <ele>4.94</ele>
        <time>2018-04-19T15:48:16Z</time>
      </trkpt>
      <trkpt lat="38.16745" lon="14.78853">
        <ele>5.42</ele>
        <time>2018-04-19T15:48:42Z</time>
      </trkpt>
      <trkpt lat="38.167" lon="14.78823">
        <ele>4.94</ele>
        <time>2018-04-19T15:49:06Z</time>
      </trkpt>
      <trkpt lat="38.16655" lon="14.78794">
        <ele>4.46</ele>
        <time>2018-04-19T15:49:30Z</time>
      </trkpt>
      <trkpt lat="38.16609" lon="14.78756">
        <ele>4.46</ele>
        <time>2018-04-19T15:49:56Z</time>
      </trkpt>
      <trkpt lat="38.1656" lon="14.78713">
        <ele>2.54</ele>
        <time>2018-04-19T15:50:24Z</time>
      </trkpt>
      <trkpt lat="38.16517" lon="14.78672">
        <ele>3.02</ele>
        <time>2018-04-19T15:50:49Z</time>
      </trkpt>
      <trkpt lat="38.16476" lon="14.7863">
        <ele>3.02</ele>
        <time>2018-04-19T15:51:14Z</time>
      </trkpt>
      <trkpt lat="38.16439" lon="14.78596">
        <ele>3.98</ele>
        <time>2018-04-19T15:51:35Z</time>
      </trkpt>
      <trkpt lat="38.16397" lon="14.78553">
        <ele>3.02</ele>
        <time>2018-04-19T15:52:00Z</time>
      </trkpt>
      <trkpt lat="38.16359" lon="14.78515">
        <ele>3.5</ele>
        <time>2018-04-19T15:52:23Z</time>
      </trkpt>
      <trkpt lat="38.16325" lon="14.78477">
        <ele>3.5</ele>
        <time>2018-04-19T15:52:43Z</time>
      </trkpt>
      <trkpt lat="38.16284" lon="14.78437">
        <ele>4.46</ele>
        <time>2018-04-19T15:53:07Z</time>
      </trkpt>
      <trkpt lat="38.16235" lon="14.78396">
        <ele>5.42</ele>
        <time>2018-04-19T15:53:33Z</time>
      </trkpt>
      <trkpt lat="38.16199" lon="14.78362">
        <ele>5.42</ele>
        <time>2018-04-19T15:53:53Z</time>
      </trkpt>
      <trkpt lat="38.16154" lon="14.78319">
        <ele>3.98</ele>
        <time>2018-04-19T15:54:18Z</time>
      </trkpt>
      <trkpt lat="38.16115" lon="14.78286">
        <ele>4.94</ele>
        <time>2018-04-19T15:54:39Z</time>
      </trkpt>
      <trkpt lat="38.16058" lon="14.78241">
        <ele>4.46</ele>
        <time>2018-04-19T15:55:08Z</time>
      </trkpt>
      <trkpt lat="38.16014" lon="14.78206">
        <ele>4.46</ele>
        <time>2018-04-19T15:55:31Z</time>
      </trkpt>
      <trkpt lat="38.15966" lon="14.78164">
        <ele>4.46</ele>
        <time>2018-04-19T15:55:57Z</time>
      </trkpt>
      <trkpt lat="38.15922" lon="14.78128">
        <ele>3.5</ele>
        <time>2018-04-19T15:56:20Z</time>
      </trkpt>
      <trkpt lat="38.15875" lon="14.78086">
        <ele>5.42</ele>
        <time>2018-04-19T15:56:46Z</time>
      </trkpt>
      <trkpt lat="38.15829" lon="14.78041">
        <ele>4.46</ele>
        <time>2018-04-19T15:57:12Z</time>
      </trkpt>
      <trkpt lat="38.15787" lon="14.77999">
        <ele>6.39</ele>
        <time>2018-04-19T15:57:36Z</time>
      </trkpt>
      <trkpt lat="38.15748" lon="14.77959">
        <ele>6.87</ele>
        <time>2018-04-19T15:57:58Z</time>
      </trkpt>
      <trkpt lat="38.15713" lon="14.77913">
        <ele>6.39</ele>
        <time>2018-04-19T15:58:21Z</time>
      </trkpt>
      <trkpt lat="38.15687" lon="14.77871">
        <ele>5.42</ele>
        <time>2018-04-19T15:58:40Z</time>
      </trkpt>
      <trkpt lat="38.15667" lon="14.77812">
        <ele>4.46</ele>
        <time>2018-04-19T15:59:03Z</time>
      </trkpt>
      <trkpt lat="38.15651" lon="14.77739">
        <ele>4.46</ele>
        <time>2018-04-19T15:59:30Z</time>
      </trkpt>
      <trkpt lat="38.15649" lon="14.77687">
        <ele>4.94</ele>
        <time>2018-04-19T15:59:49Z</time>
      </trkpt>
      <trkpt lat="38.15662" lon="14.77621">
        <ele>6.87</ele>
        <time>2018-04-19T16:00:14Z</time>
      </trkpt>
      <trkpt lat="38.15671" lon="14.77538">
        <ele>6.39</ele>
        <time>2018-04-19T16:00:46Z</time>
      </trkpt>
      <trkpt lat="38.15669" lon="14.77479">
        <ele>4.46</ele>
        <time>2018-04-19T16:01:19Z</time>
      </trkpt>
      <trkpt lat="38.15663" lon="14.77439">
        <ele>4.46</ele>
        <time>2018-04-19T16:01:49Z</time>
      </trkpt>
      <trkpt lat="38.15656" lon="14.7739">
        <ele>3.5</ele>
        <time>2018-04-19T16:02:19Z</time>
      </trkpt>
      <trkpt lat="38.1565" lon="14.77348">
        <ele>4.46</ele>
        <time>2018-04-19T16:02:43Z</time>
      </trkpt>
      <trkpt lat="38.15644" lon="14.77313">
        <ele>3.02</ele>
        <time>2018-04-19T16:03:06Z</time>
      </trkpt>
      <trkpt lat="38.15636" lon="14.77274">
        <ele>5.91</ele>
        <time>2018-04-19T16:03:35Z</time>
      </trkpt>
      <trkpt lat="38.1563" lon="14.77249">
        <ele>5.42</ele>
        <time>2018-04-19T16:03:56Z</time>
      </trkpt>
      <trkpt lat="38.1562" lon="14.77218">
        <ele>4.46</ele>
        <time>2018-04-19T16:04:23Z</time>
      </trkpt>
      <trkpt lat="38.15617" lon="14.77202">
        <ele>4.46</ele>
        <time>2018-04-19T16:04:36Z</time>
      </trkpt>
      <trkpt lat="38.15617" lon="14.7719">
        <ele>4.94</ele>
        <time>2018-04-19T16:04:46Z</time>
      </trkpt>
      <trkpt lat="38.15611" lon="14.77171">
        <ele>3.98</ele>
        <time>2018-04-19T16:05:03Z</time>
      </trkpt>
      <trkpt lat="38.15615" lon="14.77141">
        <ele>4.94</ele>
        <time>2018-04-19T16:05:30Z</time>
      </trkpt>
      <trkpt lat="38.15616" lon="14.77111">
        <ele>4.94</ele>
        <time>2018-04-19T16:05:57Z</time>
      </trkpt>
      <trkpt lat="38.15611" lon="14.77087">
        <ele>5.42</ele>
        <time>2018-04-19T16:06:20Z</time>
      </trkpt>
      <trkpt lat="38.156" lon="14.7705">
        <ele>4.94</ele>
        <time>2018-04-19T16:06:54Z</time>
      </trkpt>
      <trkpt lat="38.15598" lon="14.77045">
        <ele>4.94</ele>
        <time>2018-04-19T16:06:58Z</time>
      </trkpt>
      <trkpt lat="38.1558" lon="14.77017">
        <ele>5.42</ele>
        <time>2018-04-19T16:07:26Z</time>
      </trkpt>
      <trkpt lat="38.15555" lon="14.77022">
        <ele>5.91</ele>
        <time>2018-04-19T16:07:54Z</time>
      </trkpt>
      <trkpt lat="38.15545" lon="14.77048">
        <ele>5.42</ele>
        <time>2018-04-19T16:08:18Z</time>
      </trkpt>
      <trkpt lat="38.15548" lon="14.77076">
        <ele>4.94</ele>
        <time>2018-04-19T16:08:49Z</time>
      </trkpt>
      <trkpt lat="38.15549" lon="14.77093">
        <ele>5.42</ele>
        <time>2018-04-19T16:09:17Z</time>
      </trkpt>
      <trkpt lat="38.15548" lon="14.77098">
        <ele>5.91</ele>
        <time>2018-04-19T16:09:45Z</time>
      </trkpt>
      <trkpt lat="38.15557" lon="14.77098">
        <ele>5.42</ele>
        <time>2018-04-19T16:10:13Z</time>
      </trkpt>
      <trkpt lat="38.15564" lon="14.77096">
        <ele>6.39</ele>
        <time>2018-04-19T16:10:44Z</time>
      </trkpt>
      <trkpt lat="38.15568" lon="14.77096">
        <ele>7.35</ele>
        <time>2018-04-19T16:11:12Z</time>
      </trkpt>
      <trkpt lat="38.15572" lon="14.77094">
        <ele>7.35</ele>
        <time>2018-04-19T16:11:36Z</time>
      </trkpt>
      <trkpt lat="38.15574" lon="14.77093">
        <ele>6.87</ele>
        <time>2018-04-19T16:11:54Z</time>
      </trkpt>
    </trkseg>
  </trk>
</gpx>